
Distance (Route):
Temperature : -9.7°C
Humidity : 57.0%
Pressure : 0hPa| Receiver | Date | Latitude | Longitude | Direction | Speed | Altitude | Climb | Temperature | Humidity | Pressure | Voltage | Killtimer | Uptime | BKT | XDATA |
|---|---|---|---|---|---|---|---|---|---|---|---|---|---|---|---|
| LZ4TU-5 | 2026-09-03 18:58:47 | 44.34013 | 20.97899 | 120° | 47km/h | 5262m | -17.8m/s | -9.7°C | 57.0% | 0hPa | 5.4V | 00:00:00 | 00:00:00 | 00:00:00 | |
| LZ4TU-5 | 2026-09-03 18:58:42 | 44.34043 | 20.97829 | 122° | 46km/h | 5337m | -18.0m/s | -9.7°C | 40.4% | 0hPa | 5.4V | 00:00:00 | 00:00:00 | 00:00:00 | |
| LZ4TU-5 | 2026-09-03 18:57:37 | 44.34582 | 20.97102 | 142° | 49km/h | 6534m | -19.4m/s | -16.4°C | 28.9% | 0hPa | 5.4V | 00:00:00 | 00:00:00 | 00:00:00 | |
| LZ4TU-5 | 2026-09-03 18:57:32 | 44.34632 | 20.97043 | 142° | 53km/h | 6631m | -19.5m/s | -17.3°C | 29.5% | 0hPa | 5.4V | 00:00:00 | 00:00:00 | 00:00:00 | |
| LZ4TU-5 | 2026-09-03 18:56:29 | 44.35448 | 20.96177 | 147° | 78km/h | 7851m | -20.5m/s | -27.0°C | 77.1% | 0hPa | 5.4V | 00:00:00 | 00:00:00 | 00:00:00 | |
| LZ4TU-5 | 2026-09-03 18:56:24 | 44.35530 | 20.96099 | 146° | 78km/h | 7955m | -20.3m/s | -27.5°C | 70.2% | 0hPa | 5.4V | 00:00:00 | 00:00:00 | 00:00:00 | |
| LZ4TU-5 | 2026-09-03 18:55:17 | 44.36809 | 20.95027 | 145° | 95km/h | 9343m | -21.6m/s | -39.1°C | 75.1% | 0hPa | 5.4V | 00:00:00 | 00:00:00 | 00:00:00 | |
| LZ4TU-5 | 2026-09-03 18:54:15 | 44.37984 | 20.93847 | 141° | 82km/h | 10749m | -23.3m/s | -51.5°C | 43.9% | 0hPa | 5.4V | 00:00:00 | 00:00:00 | 00:00:00 | |
| LZ4TU-5 | 2026-09-03 18:54:10 | 44.38061 | 20.93757 | 141° | 80km/h | 10860m | -23.7m/s | -52.4°C | 37.2% | 0hPa | 5.4V | 00:00:00 | 00:00:00 | 00:00:00 | |
| LZ4TU-5 | 2026-09-03 18:53:37 | 44.38647 | 20.93185 | 143° | 86km/h | 11683m | -24.9m/s | -55.8°C | 9.0% | 0hPa | 5.4V | 00:00:00 | 00:00:00 | 00:00:00 | |
| LZ4TU-5 | 2026-09-03 18:53:32 | 44.38736 | 20.93088 | 143° | 95km/h | 11805m | -24.7m/s | -55.9°C | 0% | 0hPa | 5.4V | 00:00:00 | 00:00:00 | 00:00:00 | |
| LZ4TU-5 | 2026-09-03 18:47:18 | 44.40732 | 20.89248 | 294° | 15km/h | 28637m | -92.4m/s | -42.1°C | 0.0% | 0hPa | 5.4V | 00:00:00 | 00:00:00 | 00:00:00 | |
| LZ4TU-5 | 2026-09-03 18:47:13 | 44.40725 | 20.89267 | 295° | 11km/h | 29107m | -95.7m/s | -42.2°C | 0.2% | 0hPa | 5.4V | 00:00:00 | 00:00:00 | 00:00:00 | |
| LZ4TU-5 | 2026-09-03 18:47:06 | 44.40719 | 20.89295 | 277° | 13km/h | 29789m | -100.0m/s | -39.4°C | 0.0% | 0hPa | 5.4V | 00:00:00 | 00:00:00 | 00:00:00 | |
| LZ4TU-5 | 2026-09-03 18:45:51 | 44.40776 | 20.89757 | 226° | 44km/h | 32486m | 8.4m/s | -37.3°C | 0.0% | 0hPa | 5.4V | 00:00:00 | 00:00:00 | 00:00:00 | |
| LZ4TU-5 | 2026-09-03 18:45:46 | 44.40787 | 20.89836 | 235° | 9km/h | 32453m | 6.6m/s | -37.5°C | 0.0% | 0hPa | 5.4V | 00:00:00 | 00:00:00 | 00:00:00 | |
| LZ4TU-5 | 2026-09-03 18:44:32 | 44.41026 | 20.90329 | 267° | 38km/h | 31908m | 9.0m/s | -38.7°C | 0.0% | 0hPa | 5.4V | 00:00:00 | 00:00:00 | 00:00:00 | |
| LZ4TU-5 | 2026-09-03 18:44:28 | 44.41021 | 20.90386 | 251° | 33km/h | 31882m | 6.9m/s | -38.9°C | 0.0% | 0hPa | 5.4V | 00:00:00 | 00:00:00 | 00:00:00 | |
| LZ4TU-5 | 2026-09-03 18:43:56 | 44.41184 | 20.90510 | 240° | 22km/h | 31646m | 7.1m/s | -39.3°C | 0.0% | 0hPa | 5.4V | 00:00:00 | 00:00:00 | 00:00:00 | |
| LZ4TU-5 | 2026-09-03 18:43:52 | 44.41191 | 20.90522 | 176° | 16km/h | 31618m | 7.2m/s | -39.4°C | 0.0% | 0hPa | 5.4V | 00:00:00 | 00:00:00 | 00:00:00 | |
| LZ4TU-5 | 2026-09-03 18:42:59 | 44.41246 | 20.90698 | 289° | 18km/h | 31231m | 7.7m/s | -39.9°C | 0.0% | 0hPa | 5.4V | 00:00:00 | 00:00:00 | 00:00:00 | |
| LZ4TU-5 | 2026-09-03 18:42:54 | 44.41243 | 20.90727 | 276° | 16km/h | 31194m | 5.2m/s | -39.9°C | 0.0% | 0hPa | 5.4V | 00:00:00 | 00:00:00 | 00:00:00 | |
| LZ4TU-5 | 2026-09-03 18:42:20 | 44.41236 | 20.90870 | 256° | 26km/h | 30955m | 6.2m/s | -40.6°C | 0.0% | 0hPa | 5.4V | 00:00:00 | 00:00:00 | 00:00:00 | |
| LZ4TU-5 | 2026-09-03 18:42:15 | 44.41232 | 20.90873 | 11° | 20km/h | 30918m | 7.3m/s | -40.6°C | 0.0% | 0hPa | 5.4V | 00:00:00 | 00:00:00 | 00:00:00 | |
| LZ4TU-5 | 2026-09-03 18:41:21 | 44.41010 | 20.91150 | 302° | 27km/h | 30546m | 8.3m/s | -42.2°C | 0.0% | 0hPa | 5.4V | 00:00:00 | 00:00:00 | 00:00:00 | |
| LZ4TU-5 | 2026-09-03 18:41:16 | 44.41005 | 20.91208 | 299° | 38km/h | 30512m | 8.1m/s | -42.3°C | 0.0% | 0hPa | 5.4V | 00:00:00 | 00:00:00 | 00:00:00 | |
| LZ4TU-5 | 2026-09-03 18:40:37 | 44.40958 | 20.91601 | 286° | 26km/h | 30243m | 5.7m/s | -42.3°C | 0.0% | 0hPa | 5.4V | 00:00:00 | 00:00:00 | 00:00:00 | |
| LZ4TU-5 | 2026-09-03 18:40:33 | 44.40966 | 20.91627 | 196° | 20km/h | 30215m | 6.5m/s | -42.2°C | 0.0% | 0hPa | 5.4V | 00:00:00 | 00:00:00 | 00:00:00 | |
| LZ4TU-5 | 2026-09-03 18:39:01 | 44.40930 | 20.91953 | 273° | 24km/h | 29581m | 7.5m/s | -45.4°C | 0.0% | 0hPa | 5.4V | 00:00:00 | 00:00:00 | 00:00:00 | |
| LZ4TU-5 | 2026-09-03 18:38:56 | 44.40926 | 20.91990 | 332° | 29km/h | 29545m | 7.1m/s | -45.5°C | 0.0% | 0hPa | 5.4V | 00:00:00 | 00:00:00 | 00:00:00 | |
| LZ4TU-5 | 2026-09-03 18:38:23 | 44.40893 | 20.92118 | 242° | 9km/h | 29322m | 5.7m/s | -45.9°C | 0.0% | 0hPa | 5.4V | 00:00:00 | 00:00:00 | 00:00:00 | |
| LZ4TU-5 | 2026-09-03 18:38:18 | 44.40873 | 20.92132 | 340° | 18km/h | 29286m | 6.1m/s | -45.7°C | 0.0% | 0hPa | 5.4V | 00:00:00 | 00:00:00 | 00:00:00 | |
| LZ4TU-5 | 2026-09-03 18:37:32 | 44.40761 | 20.92359 | 284° | 24km/h | 28985m | 5.9m/s | -46.0°C | 0.0% | 0hPa | 5.4V | 00:00:00 | 00:00:00 | 00:00:00 | |
| LZ4TU-5 | 2026-09-03 18:37:27 | 44.40745 | 20.92386 | 261° | 4km/h | 28951m | 7.1m/s | -46.2°C | 0.0% | 0hPa | 5.4V | 00:00:00 | 00:00:00 | 00:00:00 | |
| LZ4TU-5 | 2026-09-03 18:36:54 | 44.40733 | 20.92592 | 303° | 5km/h | 28733m | 6.9m/s | -46.6°C | 0.0% | 0hPa | 5.4V | 00:00:00 | 00:00:00 | 00:00:00 | |
| LZ4TU-5 | 2026-09-03 18:36:49 | 44.40725 | 20.92602 | 278° | 18km/h | 28702m | 5.4m/s | -46.6°C | 0.0% | 0hPa | 5.4V | 00:00:00 | 00:00:00 | 00:00:00 | |
| OE3JTB-15 | 2026-09-03 18:36:25 | 44.40693 | 20.92751 | 285° | 26km/h | 28542m | 6.8m/s | -46.6°C | 0% | 0hPa | 5.4V | 00:00:00 | 00:00:00 | 00:00:00 | |
| LZ4TU-5 | 2026-09-03 18:36:04 | 44.40678 | 20.92882 | 267° | 20km/h | 28403m | 6.5m/s | -47.0°C | 0.0% | 0hPa | 5.4V | 00:00:00 | 00:00:00 | 00:00:00 | |
| LZ4TU-5 | 2026-09-03 18:36:00 | 44.40668 | 20.92901 | 334° | 16km/h | 28378m | 5.7m/s | -47.1°C | 0.0% | 0hPa | 5.4V | 00:00:00 | 00:00:00 | 00:00:00 | |
| LZ4TU-5 | 2026-09-03 18:35:25 | 44.40676 | 20.93015 | 337° | 5km/h | 28144m | 6.4m/s | -48.4°C | 0.0% | 0hPa | 5.4V | 00:00:00 | 00:00:00 | 00:00:00 | |
| LZ4TU-5 | 2026-09-03 18:35:20 | 44.40684 | 20.92997 | 132° | 16km/h | 28110m | 7.0m/s | -48.5°C | 0.0% | 0hPa | 5.4V | 00:00:00 | 00:00:00 | 00:00:00 | |
| LZ4TU-5 | 2026-09-03 18:35:16 | 44.40684 | 20.93008 | 273° | 24km/h | 28083m | 7.3m/s | -48.6°C | 0.0% | 0hPa | 5.4V | 00:00:00 | 00:00:00 | 00:00:00 | |
| LZ4TU-5 | 2026-09-03 18:34:30 | 44.40590 | 20.93066 | 282° | 29km/h | 27757m | 6.4m/s | -48.4°C | 0.0% | 0hPa | 5.4V | 00:00:00 | 00:00:00 | 00:00:00 | |
| LZ4TU-5 | 2026-09-03 18:34:26 | 44.40596 | 20.93092 | 206° | 18km/h | 27728m | 7.1m/s | -48.3°C | 0.0% | 0hPa | 5.4V | 00:00:00 | 00:00:00 | 00:00:00 | |
| LZ4TU-5 | 2026-09-03 18:33:52 | 44.40634 | 20.93279 | 252° | 24km/h | 27489m | 6.5m/s | -47.5°C | 0.0% | 0hPa | 5.4V | 00:00:00 | 00:00:00 | 00:00:00 | |
| LZ4TU-5 | 2026-09-03 18:33:47 | 44.40633 | 20.93299 | 298° | 16km/h | 27455m | 7.6m/s | -47.5°C | 0.0% | 0hPa | 5.4V | 00:00:00 | 00:00:00 | 00:00:00 | |
| LZ4TU-5 | 2026-09-03 18:33:00 | 44.40816 | 20.93573 | 254° | 31km/h | 27129m | 5.9m/s | -47.9°C | 0.0% | 0hPa | 5.4V | 00:00:00 | 00:00:00 | 00:00:00 | |
| LZ4TU-5 | 2026-09-03 18:32:55 | 44.40853 | 20.93603 | 172° | 40km/h | 27098m | 6.2m/s | -48.5°C | 0.0% | 0hPa | 5.4V | 00:00:00 | 00:00:00 | 00:00:00 | |
| LZ4TU-5 | 2026-09-03 18:32:21 | 44.41011 | 20.93688 | 185° | 24km/h | 26875m | 7.3m/s | -49.5°C | 0.0% | 0hPa | 5.4V | 00:00:00 | 00:00:00 | 00:00:00 | |
| LZ4TU-5 | 2026-09-03 18:32:17 | 44.41045 | 20.93697 | 192° | 31km/h | 26848m | 6.3m/s | -49.5°C | 0.0% | 0hPa | 5.4V | 00:00:00 | 00:00:00 | 00:00:00 | |
| OE3JTB-15 | 2026-09-03 18:32:11 | 44.41077 | 20.93715 | 214° | 33km/h | 26806m | 6.6m/s | -49.0°C | 0% | 0hPa | 5.4V | 00:00:00 | 00:00:00 | 00:00:00 | |
| LZ4TU-5 | 2026-09-03 18:31:31 | 44.41366 | 20.93664 | 171° | 20km/h | 26550m | 7.4m/s | -49.6°C | 0.0% | 0hPa | 5.4V | 00:00:00 | 00:00:00 | 00:00:00 | |
| LZ4TU-5 | 2026-09-03 18:31:26 | 44.41396 | 20.93668 | 186° | 29km/h | 26518m | 5.4m/s | -49.6°C | 0.0% | 0hPa | 5.4V | 00:00:00 | 00:00:00 | 00:00:00 | |
| OM5KV | 2026-09-03 18:30:55 | 44.41551 | 20.93616 | 127° | 42km/h | 26313m | 7.2m/s | -50.4°C | 0.0% | 0hPa | 5.4V | 00:00:00 | 00:00:00 | 00:00:00 | |
| LZ4TU-5 | 2026-09-03 18:30:52 | 44.41569 | 20.93592 | 150° | 13km/h | 26294m | 6.7m/s | -50.3°C | 0.0% | 0hPa | 5.4V | 00:00:00 | 00:00:00 | 00:00:00 | |
| OM5KV | 2026-09-03 18:30:49 | 44.41569 | 20.93592 | 0° | 0km/h | 26277m | 7.2m/s | -50.3°C | 0.0% | 0hPa | 5.4V | 00:00:00 | 00:00:00 | 00:00:00 | |
| LZ4TU-5 | 2026-09-03 18:30:47 | 44.41573 | 20.93586 | 133° | 22km/h | 26262m | 6.4m/s | -50.3°C | 0.0% | 0hPa | 5.4V | 00:00:00 | 00:00:00 | 00:00:00 | |
| OM5KV | 2026-09-03 18:30:44 | 44.41590 | 20.93565 | 144° | 31km/h | 26241m | 6.3m/s | -50.3°C | 0.0% | 0hPa | 5.4V | 00:00:00 | 00:00:00 | 00:00:00 | |
| OM5KV | 2026-09-03 18:30:31 | 44.41614 | 20.93530 | 148° | 11km/h | 26155m | 6.6m/s | -50.6°C | 0.0% | 0hPa | 5.4V | 00:00:00 | 00:00:00 | 00:00:00 | |
| OM5KV | 2026-09-03 18:30:24 | 44.41611 | 20.93527 | 271° | 5km/h | 26109m | 6.2m/s | -50.5°C | 0.0% | 0hPa | 5.4V | 00:00:00 | 00:00:00 | 00:00:00 | |
| OM5KV | 2026-09-03 18:30:18 | 44.41643 | 20.93517 | 217° | 13km/h | 26068m | 6.8m/s | -50.4°C | 0.0% | 0hPa | 5.4V | 00:00:00 | 00:00:00 | 00:00:00 | |
| OM5KV | 2026-09-03 18:30:11 | 44.41653 | 20.93538 | 199° | 16km/h | 26022m | 6.9m/s | -50.5°C | 0.0% | 0hPa | 5.4V | 00:00:00 | 00:00:00 | 00:00:00 | |
| LZ4TU-5 | 2026-09-03 18:30:02 | 44.41682 | 20.93572 | 225° | 16km/h | 25961m | 6.3m/s | -50.8°C | 0.0% | 0hPa | 5.4V | 00:00:00 | 00:00:00 | 00:00:00 | |
| OE3JTB-15 | 2026-09-03 18:29:59 | 44.41691 | 20.93581 | 187° | 29km/h | 25943m | 4.7m/s | -50.2°C | 0% | 0hPa | 5.4V | 00:00:00 | 00:00:00 | 00:00:00 | |
| LZ4TU-5 | 2026-09-03 18:29:57 | 44.41698 | 20.93579 | 158° | 16km/h | 25929m | 6.4m/s | -50.8°C | 0.0% | 0hPa | 5.4V | 00:00:00 | 00:00:00 | 00:00:00 | |
| OE3JTB-15 | 2026-09-03 18:29:23 | 44.41900 | 20.93540 | 117° | 24km/h | 25709m | 5.0m/s | -51.3°C | 0% | 0hPa | 5.4V | 00:00:00 | 00:00:00 | 00:00:00 | |
| LZ4TU-5 | 2026-09-03 18:29:18 | 44.41918 | 20.93510 | 193° | 24km/h | 25678m | 7.5m/s | -52.1°C | 0.0% | 0hPa | 5.5V | 00:00:00 | 00:00:00 | 00:00:00 | |
| OE3JTB-15 | 2026-09-03 18:28:53 | 44.41957 | 20.93354 | 154° | 16km/h | 25519m | 6.2m/s | -51.4°C | 0% | 0hPa | 5.5V | 00:00:00 | 00:00:00 | 00:00:00 | |
| LZ4TU-5 | 2026-09-03 18:28:31 | 44.41949 | 20.93296 | 179° | 24km/h | 25377m | 7.1m/s | -52.0°C | 0.0% | 0hPa | 5.5V | 00:00:00 | 00:00:00 | 00:00:00 | |
| LZ4TU-5 | 2026-09-03 18:28:26 | 44.41971 | 20.93296 | 27° | 9km/h | 25345m | 8.7m/s | -52.1°C | 0.0% | 0hPa | 5.5V | 00:00:00 | 00:00:00 | 00:00:00 | |
| LZ4TU-5 | 2026-09-03 18:27:53 | 44.42003 | 20.93332 | 98° | 7km/h | 25132m | 7.3m/s | -52.2°C | 0.0% | 0hPa | 5.5V | 00:00:00 | 00:00:00 | 00:00:00 | |
| LZ4TU-5 | 2026-09-03 18:27:48 | 44.41989 | 20.93329 | 231° | 4km/h | 25101m | 6.2m/s | -52.1°C | 0.0% | 0hPa | 5.5V | 00:00:00 | 00:00:00 | 00:00:00 | |
| OE3JTB-15 | 2026-09-03 18:27:44 | 44.42008 | 20.93344 | 201° | 13km/h | 25076m | 4.5m/s | -51.4°C | 0% | 0hPa | 5.5V | 00:00:00 | 00:00:00 | 00:00:00 | |
| LZ4TU-5 | 2026-09-03 18:26:57 | 44.42147 | 20.93333 | 333° | 5km/h | 24778m | 6.1m/s | -51.9°C | 0.0% | 0hPa | 5.5V | 00:00:00 | 00:00:00 | 00:00:00 | |
| OM5KV | 2026-09-03 18:26:55 | 44.42146 | 20.93326 | 102° | 20km/h | 24765m | 6.0m/s | -51.9°C | 0.0% | 0hPa | 5.5V | 00:00:00 | 00:00:00 | 00:00:00 | |
| OM5KV | 2026-09-03 18:26:50 | 44.42163 | 20.93300 | 155° | 9km/h | 24734m | 6.6m/s | -52.0°C | 0.0% | 0hPa | 5.5V | 00:00:00 | 00:00:00 | 00:00:00 | |
| OM5KV | 2026-09-03 18:26:44 | 44.42156 | 20.93303 | 114° | 7km/h | 24696m | 8.1m/s | -52.3°C | 0.0% | 0hPa | 5.5V | 00:00:00 | 00:00:00 | 00:00:00 | |
| OM5KV | 2026-09-03 18:26:39 | 44.42164 | 20.93277 | 28° | 11km/h | 24664m | 5.3m/s | -52.3°C | 0.0% | 0hPa | 5.5V | 00:00:00 | 00:00:00 | 00:00:00 | |
| OM5KV | 2026-09-03 18:26:31 | 44.42155 | 20.93272 | 168° | 26km/h | 24610m | 6.9m/s | -52.6°C | 0.0% | 0hPa | 5.5V | 00:00:00 | 00:00:00 | 00:00:00 | |
| OM5KV | 2026-09-03 18:26:25 | 44.42153 | 20.93258 | 14° | 15km/h | 24572m | 8.0m/s | -52.7°C | 0.0% | 0hPa | 5.5V | 00:00:00 | 00:00:00 | 00:00:00 | |
| LZ4TU-5 | 2026-09-03 18:26:23 | 44.42149 | 20.93254 | 71° | 4km/h | 24561m | 4.2m/s | -52.7°C | 0.0% | 0hPa | 5.5V | 00:00:00 | 00:00:00 | 00:00:00 | |
| OM5KV | 2026-09-03 18:26:19 | 44.42155 | 20.93259 | 202° | 9km/h | 24531m | 7.6m/s | -52.8°C | 0.0% | 0hPa | 5.5V | 00:00:00 | 00:00:00 | 00:00:00 | |
| LZ4TU-5 | 2026-09-03 18:26:18 | 44.42156 | 20.93260 | 166° | 5km/h | 24525m | 5.5m/s | -52.8°C | 0.0% | 0hPa | 5.5V | 00:00:00 | 00:00:00 | 00:00:00 | |
| OE3JTB-15 | 2026-09-03 18:26:12 | 44.42145 | 20.93260 | 33° | 11km/h | 24486m | 7.0m/s | -52.0°C | 0% | 0hPa | 5.5V | 00:00:00 | 00:00:00 | 00:00:00 | |
| OM5KV | 2026-09-03 18:25:50 | 44.42182 | 20.93273 | 159° | 4km/h | 24345m | 5.5m/s | -52.5°C | 0.0% | 0hPa | 5.5V | 00:00:00 | 00:00:00 | 00:00:00 | |
| OE3JTB-15 | 2026-09-03 18:25:43 | 44.42201 | 20.93271 | 203° | 24km/h | 24300m | 5.9m/s | -51.7°C | 0% | 0hPa | 5.5V | 00:00:00 | 00:00:00 | 00:00:00 | |
| OM5KV | 2026-09-03 18:25:37 | 44.42232 | 20.93266 | 132° | 11km/h | 24261m | 5.6m/s | -52.4°C | 0.0% | 0hPa | 5.5V | 00:00:00 | 00:00:00 | 00:00:00 | |
| LZ4TU-5 | 2026-09-03 18:25:32 | 44.42249 | 20.93265 | 205° | 29km/h | 24228m | 5.4m/s | -52.5°C | 0.0% | 0hPa | 5.5V | 00:00:00 | 00:00:00 | 00:00:00 | |
| LZ4TU-5 | 2026-09-03 18:25:27 | 44.42284 | 20.93265 | 171° | 24km/h | 24194m | 6.4m/s | -52.5°C | 0.0% | 0hPa | 5.5V | 00:00:00 | 00:00:00 | 00:00:00 | |
| OM5KV | 2026-09-03 18:25:20 | 44.42321 | 20.93256 | 190° | 24km/h | 24151m | 5.2m/s | -52.3°C | 0.0% | 0hPa | 5.5V | 00:00:00 | 00:00:00 | 00:00:00 | |
| OM5KV | 2026-09-03 18:24:55 | 44.42403 | 20.93204 | 134° | 13km/h | 23980m | 6.2m/s | -52.6°C | 0.0% | 0hPa | 5.5V | 00:00:00 | 00:00:00 | 00:00:00 | |
| LZ4TU-5 | 2026-09-03 18:24:53 | 44.42404 | 20.93203 | 0° | 0km/h | 23973m | 6.8m/s | -52.7°C | 0.0% | 0hPa | 5.5V | 00:00:00 | 00:00:00 | 00:00:00 | |
| LZ4TU-5 | 2026-09-03 18:24:48 | 44.42401 | 20.93218 | 267° | 15km/h | 23940m | 6.9m/s | -52.9°C | 0.0% | 0hPa | 5.5V | 00:00:00 | 00:00:00 | 00:00:00 | |
| OM5KV | 2026-09-03 18:24:37 | 44.42424 | 20.93236 | 184° | 11km/h | 23870m | 4.5m/s | -52.6°C | 0.0% | 0hPa | 5.5V | 00:00:00 | 00:00:00 | 00:00:00 | |
| OM5KV | 2026-09-03 18:24:31 | 44.42440 | 20.93237 | 145° | 11km/h | 23829m | 6.5m/s | -52.3°C | 0.0% | 0hPa | 5.5V | 00:00:00 | 00:00:00 | 00:00:00 | |
| OM5KV | 2026-09-03 18:24:25 | 44.42453 | 20.93223 | 162° | 11km/h | 23790m | 7.2m/s | -52.2°C | 0.0% | 0hPa | 5.5V | 00:00:00 | 00:00:00 | 00:00:00 | |
| OM5KV | 2026-09-03 18:24:19 | 44.42473 | 20.93212 | 153° | 18km/h | 23751m | 7.6m/s | -52.3°C | 0.0% | 0hPa | 5.5V | 00:00:00 | 00:00:00 | 00:00:00 | |
| OM5KV | 2026-09-03 18:24:12 | 44.42505 | 20.93187 | 154° | 18km/h | 23707m | 6.7m/s | -52.4°C | 0.0% | 0hPa | 5.5V | 00:00:00 | 00:00:00 | 00:00:00 | |
| OM5KV | 2026-09-03 18:24:06 | 44.42521 | 20.93153 | 124° | 15km/h | 23669m | 5.3m/s | -52.4°C | 0.0% | 0hPa | 5.5V | 00:00:00 | 00:00:00 | 00:00:00 | |
| LZ4TU-5 | 2026-09-03 18:24:01 | 44.42545 | 20.93136 | 166° | 20km/h | 23637m | 7.1m/s | -52.4°C | 0.0% | 0hPa | 5.5V | 00:00:00 | 00:00:00 | 00:00:00 | |
| OM5KV | 2026-09-03 18:24:00 | 44.42548 | 20.93134 | 166° | 13km/h | 23631m | 5.6m/s | -52.4°C | 0.0% | 0hPa | 5.5V | 00:00:00 | 00:00:00 | 00:00:00 | |
| LZ4TU-5 | 2026-09-03 18:23:56 | 44.42556 | 20.93121 | 119° | 20km/h | 23606m | 5.8m/s | -52.3°C | 0.0% | 0hPa | 5.5V | 00:00:00 | 00:00:00 | 00:00:00 | |
| OM5KV | 2026-09-03 18:23:43 | 44.42573 | 20.93097 | 0° | 0km/h | 23522m | 7.1m/s | -51.8°C | 0.0% | 0hPa | 5.5V | 00:00:00 | 00:00:00 | 00:00:00 | |
| OM5KV | 2026-09-03 18:23:37 | 44.42582 | 20.93103 | 251° | 5km/h | 23483m | 6.9m/s | -51.6°C | 0.0% | 0hPa | 5.5V | 00:00:00 | 00:00:00 | 00:00:00 | |
| OM5KV | 2026-09-03 18:23:32 | 44.42580 | 20.93108 | 265° | 11km/h | 23451m | 6.9m/s | -51.5°C | 0.0% | 0hPa | 5.5V | 00:00:00 | 00:00:00 | 00:00:00 | |
| OM5KV | 2026-09-03 18:23:27 | 44.42592 | 20.93125 | 231° | 15km/h | 23419m | 7.0m/s | -51.5°C | 0.0% | 0hPa | 5.5V | 00:00:00 | 00:00:00 | 00:00:00 | |
| LZ4TU-5 | 2026-09-03 18:23:23 | 44.42597 | 20.93141 | 228° | 7km/h | 23395m | 7.0m/s | -51.5°C | 0.0% | 0hPa | 5.5V | 00:00:00 | 00:00:00 | 00:00:00 | |
| OM5KV | 2026-09-03 18:23:21 | 44.42600 | 20.93142 | 196° | 9km/h | 23383m | 6.6m/s | -51.5°C | 0.0% | 0hPa | 5.5V | 00:00:00 | 00:00:00 | 00:00:00 | |
| LZ4TU-5 | 2026-09-03 18:23:18 | 44.42604 | 20.93154 | 260° | 16km/h | 23364m | 6.1m/s | -51.6°C | 0.0% | 0hPa | 5.5V | 00:00:00 | 00:00:00 | 00:00:00 | |
| OM5KV | 2026-09-03 18:23:16 | 44.42606 | 20.93162 | 227° | 9km/h | 23352m | 5.6m/s | -51.6°C | 0.0% | 0hPa | 5.5V | 00:00:00 | 00:00:00 | 00:00:00 | |
| OM5KV | 2026-09-03 18:23:10 | 44.42621 | 20.93177 | 205° | 22km/h | 23315m | 5.6m/s | -51.6°C | 0.0% | 0hPa | 5.5V | 00:00:00 | 00:00:00 | 00:00:00 | |
| OM5KV | 2026-09-03 18:23:04 | 44.42636 | 20.93195 | 182° | 11km/h | 23278m | 5.5m/s | -51.5°C | 0.0% | 0hPa | 5.5V | 00:00:00 | 00:00:00 | 00:00:00 | |
| OM5KV | 2026-09-03 18:22:59 | 44.42653 | 20.93204 | 199° | 24km/h | 23247m | 7.6m/s | -51.7°C | 0.0% | 0hPa | 5.5V | 00:00:00 | 00:00:00 | 00:00:00 | |
| OM5KV | 2026-09-03 18:22:53 | 44.42684 | 20.93212 | 166° | 18km/h | 23209m | 6.5m/s | -51.6°C | 0.0% | 0hPa | 5.5V | 00:00:00 | 00:00:00 | 00:00:00 | |
| OM5KV | 2026-09-03 18:22:47 | 44.42710 | 20.93213 | 172° | 24km/h | 23172m | 6.8m/s | -51.8°C | 0.0% | 0hPa | 5.5V | 00:00:00 | 00:00:00 | 00:00:00 | |
| OM5KV | 2026-09-03 18:22:42 | 44.42734 | 20.93198 | 138° | 16km/h | 23140m | 6.6m/s | -51.7°C | 0.0% | 0hPa | 5.5V | 00:00:00 | 00:00:00 | 00:00:00 | |
| OM5KV | 2026-09-03 18:22:37 | 44.42754 | 20.93171 | 144° | 22km/h | 23104m | 6.6m/s | -51.7°C | 0.0% | 0hPa | 5.5V | 00:00:00 | 00:00:00 | 00:00:00 | |
| OM5KV | 2026-09-03 18:22:31 | 44.42779 | 20.93146 | 173° | 18km/h | 23073m | 5.7m/s | -51.5°C | 0.0% | 0hPa | 5.5V | 00:00:00 | 00:00:00 | 00:00:00 | |
| OM5KV | 2026-09-03 18:22:25 | 44.42804 | 20.93118 | 108° | 24km/h | 23036m | 6.6m/s | -51.4°C | 0.0% | 0hPa | 5.5V | 00:00:00 | 00:00:00 | 00:00:00 | |
| LZ4TU-5 | 2026-09-03 18:22:20 | 44.42814 | 20.93081 | 149° | 22km/h | 23005m | 7.3m/s | -51.6°C | 0.0% | 0hPa | 5.5V | 00:00:00 | 00:00:00 | 00:00:00 | |
| OM5KV | 2026-09-03 18:22:19 | 44.42819 | 20.93079 | 169° | 20km/h | 22998m | 6.2m/s | -51.6°C | 0.0% | 0hPa | 5.5V | 00:00:00 | 00:00:00 | 00:00:00 | |
| OM5KV | 2026-09-03 18:22:13 | 44.42845 | 20.93048 | 104° | 20km/h | 22962m | 6.9m/s | -51.8°C | 0.0% | 0hPa | 5.5V | 00:00:00 | 00:00:00 | 00:00:00 | |
| OM5KV | 2026-09-03 18:22:07 | 44.42861 | 20.93040 | 202° | 24km/h | 22926m | 4.9m/s | -51.9°C | 0.0% | 0hPa | 5.5V | 00:00:00 | 00:00:00 | 00:00:00 | |
| OM5KV | 2026-09-03 18:21:51 | 44.42926 | 20.92989 | 112° | 26km/h | 22828m | 6.3m/s | -51.7°C | 0.0% | 0hPa | 5.5V | 00:00:00 | 00:00:00 | 00:00:00 | |
| LZ4TU-5 | 2026-09-03 18:21:47 | 44.42925 | 20.92977 | 0° | 0km/h | 22802m | 6.4m/s | -51.7°C | 0.0% | 0hPa | 5.5V | 00:00:00 | 00:00:00 | 00:00:00 | |
| OM5KV | 2026-09-03 18:21:45 | 44.42930 | 20.92974 | 164° | 16km/h | 22788m | 6.9m/s | -51.8°C | 0.0% | 0hPa | 5.5V | 00:00:00 | 00:00:00 | 00:00:00 | |
| LZ4TU-5 | 2026-09-03 18:21:42 | 44.42945 | 20.92962 | 137° | 31km/h | 22769m | 7.6m/s | -51.7°C | 0.0% | 0hPa | 5.5V | 00:00:00 | 00:00:00 | 00:00:00 | |
| OM5KV | 2026-09-03 18:21:37 | 44.42951 | 20.92937 | 309° | 13km/h | 22741m | 5.7m/s | -51.7°C | 0.0% | 0hPa | 5.5V | 00:00:00 | 00:00:00 | 00:00:00 | |
| OM5KV | 2026-09-03 18:21:30 | 44.42963 | 20.92931 | 153° | 20km/h | 22698m | 6.2m/s | -51.9°C | 0.0% | 0hPa | 5.5V | 00:00:00 | 00:00:00 | 00:00:00 | |
| OM5KV | 2026-09-03 18:21:26 | 44.42972 | 20.92925 | 280° | 4km/h | 22674m | 6.2m/s | -52.0°C | 0.0% | 0hPa | 5.5V | 00:00:00 | 00:00:00 | 00:00:00 | |
| OM5KV | 2026-09-03 18:21:23 | 44.42970 | 20.92935 | 248° | 9km/h | 22657m | 5.2m/s | -52.0°C | 0.0% | 0hPa | 5.5V | 00:00:00 | 00:00:00 | 00:00:00 | |
| OM5KV | 2026-09-03 18:21:17 | 44.42996 | 20.92926 | 203° | 9km/h | 22620m | 6.6m/s | -52.0°C | 0.0% | 0hPa | 5.5V | 00:00:00 | 00:00:00 | 00:00:00 | |
| OM5KV | 2026-09-03 18:21:08 | 44.43016 | 20.92930 | 161° | 38km/h | 22565m | 4.9m/s | -52.2°C | 0.0% | 0hPa | 5.5V | 00:00:00 | 00:00:00 | 00:00:00 | |
| OM5KV | 2026-09-03 18:21:06 | 44.43033 | 20.92926 | 186° | 26km/h | 22555m | 5.4m/s | -52.3°C | 0.0% | 0hPa | 5.5V | 00:00:00 | 00:00:00 | 00:00:00 | |
| OM5KV | 2026-09-03 18:21:01 | 44.43038 | 20.92941 | 273° | 5km/h | 22525m | 5.4m/s | -52.7°C | 0.0% | 0hPa | 5.5V | 00:00:00 | 00:00:00 | 00:00:00 | |
| LZ4TU-5 | 2026-09-03 18:20:57 | 44.43054 | 20.92944 | 168° | 27km/h | 22501m | 6.9m/s | -52.9°C | 0.0% | 0hPa | 5.5V | 00:00:00 | 00:00:00 | 00:00:00 | |
| OM5KV | 2026-09-03 18:20:56 | 44.43061 | 20.92941 | 156° | 27km/h | 22496m | 5.5m/s | -52.9°C | 0.0% | 0hPa | 5.5V | 00:00:00 | 00:00:00 | 00:00:00 | |
| LZ4TU-5 | 2026-09-03 18:20:52 | 44.43080 | 20.92934 | 205° | 16km/h | 22474m | 5.2m/s | -53.1°C | 0.0% | 0hPa | 5.5V | 00:00:00 | 00:00:00 | 00:00:00 | |
| OM5KV | 2026-09-03 18:20:49 | 44.43090 | 20.92937 | 151° | 13km/h | 22457m | 6.6m/s | -53.2°C | 0.0% | 0hPa | 5.5V | 00:00:00 | 00:00:00 | 00:00:00 | |
| OM5KV | 2026-09-03 18:20:45 | 44.43101 | 20.92916 | 123° | 16km/h | 22434m | 5.4m/s | -53.5°C | 0.0% | 0hPa | 5.5V | 00:00:00 | 00:00:00 | 00:00:00 | |
| OM5KV | 2026-09-03 18:20:43 | 44.43106 | 20.92906 | 130° | 20km/h | 22423m | 6.1m/s | -53.5°C | 0.0% | 0hPa | 5.5V | 00:00:00 | 00:00:00 | 00:00:00 | |
| OM5KV | 2026-09-03 18:20:39 | 44.43130 | 20.92895 | 179° | 33km/h | 22400m | 4.2m/s | -53.5°C | 0.0% | 0hPa | 5.5V | 00:00:00 | 00:00:00 | 00:00:00 | |
| OM5KV | 2026-09-03 18:20:38 | 44.43138 | 20.92894 | 170° | 33km/h | 22394m | 5.8m/s | -53.5°C | 0.0% | 0hPa | 5.5V | 00:00:00 | 00:00:00 | 00:00:00 | |
| OM5KV | 2026-09-03 18:20:34 | 44.43160 | 20.92869 | 105° | 24km/h | 22368m | 6.1m/s | -53.5°C | 0.0% | 0hPa | 5.5V | 00:00:00 | 00:00:00 | 00:00:00 | |
| OM5KV | 2026-09-03 18:20:28 | 44.43183 | 20.92829 | 168° | 26km/h | 22334m | 5.0m/s | -53.7°C | 0.0% | 0hPa | 5.5V | 00:00:00 | 00:00:00 | 00:00:00 | |
| OM5KV | 2026-09-03 18:20:27 | 44.43189 | 20.92827 | 165° | 26km/h | 22329m | 4.7m/s | -53.7°C | 0.0% | 0hPa | 5.5V | 00:00:00 | 00:00:00 | 00:00:00 | |
| OM5KV | 2026-09-03 18:20:26 | 44.43195 | 20.92823 | 153° | 27km/h | 22323m | 6.2m/s | -53.6°C | 0.0% | 0hPa | 5.5V | 00:00:00 | 00:00:00 | 00:00:00 | |
| OM5KV | 2026-09-03 18:20:23 | 44.43210 | 20.92798 | 113° | 31km/h | 22306m | 6.7m/s | -53.6°C | 0.0% | 0hPa | 5.5V | 00:00:00 | 00:00:00 | 00:00:00 | |
| OM5KV | 2026-09-03 18:20:20 | 44.43214 | 20.92769 | 99° | 27km/h | 22288m | 6.4m/s | -53.6°C | 0.0% | 0hPa | 5.5V | 00:00:00 | 00:00:00 | 00:00:00 | |
| LZ4TU-5 | 2026-09-03 18:20:19 | 44.43215 | 20.92760 | 111° | 26km/h | 22282m | 5.1m/s | -53.6°C | 0.0% | 0hPa | 5.5V | 00:00:00 | 00:00:00 | 00:00:00 | |
| OM5KV | 2026-09-03 18:20:15 | 44.43230 | 20.92737 | 143° | 26km/h | 22259m | 4.6m/s | -53.7°C | 0.0% | 0hPa | 5.5V | 00:00:00 | 00:00:00 | 00:00:00 | |
| OM5KV | 2026-09-03 18:20:13 | 44.43240 | 20.92720 | 126° | 40km/h | 22246m | 6.1m/s | -53.6°C | 0.0% | 0hPa | 5.5V | 00:00:00 | 00:00:00 | 00:00:00 | |
| OM5KV | 2026-09-03 18:20:12 | 44.43246 | 20.92708 | 119° | 42km/h | 22241m | 5.1m/s | -53.6°C | 0.0% | 0hPa | 5.5V | 00:00:00 | 00:00:00 | 00:00:00 | |
| OM5KV | 2026-09-03 18:20:10 | 44.43254 | 20.92683 | 108° | 31km/h | 22229m | 6.0m/s | -53.6°C | 0.0% | 0hPa | 5.5V | 00:00:00 | 00:00:00 | 00:00:00 | |
| OE3JTB-15 | 2026-09-03 18:20:00 | 44.43281 | 20.92599 | 97° | 29km/h | 22168m | 6.1m/s | -52.9°C | 0% | 0hPa | 5.5V | 00:00:00 | 00:00:00 | 00:00:00 | |
| OM5KV | 2026-09-03 18:19:59 | 44.43282 | 20.92586 | 91° | 38km/h | 22162m | 6.4m/s | -53.7°C | 0.0% | 0hPa | 5.5V | 00:00:00 | 00:00:00 | 00:00:00 | |
| OM5KV | 2026-09-03 18:19:55 | 44.43281 | 20.92542 | 99° | 27km/h | 22137m | 6.3m/s | -54.0°C | 0.0% | 0hPa | 5.5V | 00:00:00 | 00:00:00 | 00:00:00 | |
| OM5KV | 2026-09-03 18:19:49 | 44.43286 | 20.92485 | 76° | 38km/h | 22102m | 5.2m/s | -54.1°C | 0.0% | 0hPa | 5.5V | 00:00:00 | 00:00:00 | 00:00:00 | |
| OM5KV | 2026-09-03 18:19:44 | 44.43267 | 20.92432 | 55° | 27km/h | 22072m | 5.9m/s | -54.3°C | 0.0% | 0hPa | 5.5V | 00:00:00 | 00:00:00 | 00:00:00 | |
| OM5KV | 2026-09-03 18:19:43 | 44.43264 | 20.92425 | 55° | 22km/h | 22066m | 6.6m/s | -54.3°C | 0.0% | 0hPa | 5.5V | 00:00:00 | 00:00:00 | 00:00:00 | |
| OM5KV | 2026-09-03 18:19:38 | 44.43254 | 20.92390 | 75° | 35km/h | 22037m | 5.1m/s | -54.4°C | 0.0% | 0hPa | 5.5V | 00:00:00 | 00:00:00 | 00:00:00 | |
| OM5KV | 2026-09-03 18:19:36 | 44.43249 | 20.92369 | 67° | 27km/h | 22025m | 6.0m/s | -54.5°C | 0.0% | 0hPa | 5.5V | 00:00:00 | 00:00:00 | 00:00:00 | |
| OM5KV | 2026-09-03 18:19:35 | 44.43245 | 20.92360 | 58° | 26km/h | 22018m | 6.1m/s | -54.5°C | 0.0% | 0hPa | 5.5V | 00:00:00 | 00:00:00 | 00:00:00 | |
| OM5KV | 2026-09-03 18:19:33 | 44.43237 | 20.92348 | 37° | 20km/h | 22007m | 4.9m/s | -54.5°C | 0.0% | 0hPa | 5.5V | 00:00:00 | 00:00:00 | 00:00:00 | |
| OE3JTB-15 | 2026-09-03 18:19:31 | 44.43231 | 20.92343 | 15° | 13km/h | 21994m | 6.3m/s | -53.7°C | 0% | 0hPa | 5.5V | 00:00:00 | 00:00:00 | 00:00:00 | |
| LZ4TU-5 | 2026-09-03 18:19:30 | 44.43230 | 20.92342 | 64° | 4km/h | 21989m | 4.8m/s | -54.4°C | 0.0% | 0hPa | 5.6V | 00:00:00 | 00:00:00 | 00:00:00 | |
| LZ4TU-5 | 2026-09-03 18:19:25 | 44.43223 | 20.92307 | 82° | 26km/h | 21958m | 5.9m/s | -54.5°C | 0.0% | 0hPa | 5.6V | 00:00:00 | 00:00:00 | 00:00:00 | |
| OM5KV | 2026-09-03 18:19:05 | 44.43195 | 20.92262 | 0° | 0km/h | 21840m | 5.2m/s | -54.5°C | 0.0% | 0hPa | 5.6V | 00:00:00 | 00:00:00 | 00:00:00 | |
| OM5KV | 2026-09-03 18:19:00 | 44.43187 | 20.92264 | 288° | 15km/h | 21809m | 5.3m/s | -54.4°C | 0.0% | 0hPa | 5.6V | 00:00:00 | 00:00:00 | 00:00:00 | |
| OM5KV | 2026-09-03 18:18:59 | 44.43186 | 20.92269 | 280° | 16km/h | 21804m | 4.5m/s | -54.4°C | 0.0% | 0hPa | 5.6V | 00:00:00 | 00:00:00 | 00:00:00 | |
| LZ4TU-5 | 2026-09-03 18:18:51 | 44.43184 | 20.92280 | 286° | 5km/h | 21759m | 6.4m/s | -54.3°C | 0.0% | 0hPa | 5.6V | 00:00:00 | 00:00:00 | 00:00:00 | |
| OM5KV | 2026-09-03 18:18:49 | 44.43182 | 20.92284 | 316° | 7km/h | 21747m | 6.8m/s | -54.2°C | 0.0% | 0hPa | 5.6V | 00:00:00 | 00:00:00 | 00:00:00 | |
| OM5KV | 2026-09-03 18:18:48 | 44.43180 | 20.92285 | 320° | 7km/h | 21741m | 5.6m/s | -54.2°C | 0.0% | 0hPa | 5.6V | 00:00:00 | 00:00:00 | 00:00:00 | |
| LZ4TU-5 | 2026-09-03 18:18:46 | 44.43177 | 20.92290 | 303° | 9km/h | 21729m | 5.9m/s | -54.2°C | 0.0% | 0hPa | 5.6V | 00:00:00 | 00:00:00 | 00:00:00 | |
| OM5KV | 2026-09-03 18:18:43 | 44.43180 | 20.92299 | 200° | 15km/h | 21711m | 6.3m/s | -54.2°C | 0.0% | 0hPa | 5.6V | 00:00:00 | 00:00:00 | 00:00:00 | |
| OM5KV | 2026-09-03 18:18:42 | 44.43183 | 20.92300 | 191° | 15km/h | 21706m | 4.9m/s | -54.2°C | 0.0% | 0hPa | 5.6V | 00:00:00 | 00:00:00 | 00:00:00 | |
| OM5KV | 2026-09-03 18:18:38 | 44.43188 | 20.92306 | 316° | 5km/h | 21684m | 5.7m/s | -54.2°C | 0.0% | 0hPa | 5.6V | 00:00:00 | 00:00:00 | 00:00:00 | |
| OM5KV | 2026-09-03 18:18:35 | 44.43190 | 20.92308 | 196° | 11km/h | 21666m | 5.7m/s | -54.1°C | 0.0% | 0hPa | 5.6V | 00:00:00 | 00:00:00 | 00:00:00 | |
| OM5KV | 2026-09-03 18:18:32 | 44.43197 | 20.92315 | 222° | 13km/h | 21648m | 5.1m/s | -54.1°C | 0.0% | 0hPa | 5.6V | 00:00:00 | 00:00:00 | 00:00:00 | |
| OM5KV | 2026-09-03 18:18:29 | 44.43204 | 20.92317 | 135° | 7km/h | 21631m | 5.2m/s | -54.1°C | 0.0% | 0hPa | 5.6V | 00:00:00 | 00:00:00 | 00:00:00 | |
| OM5KV | 2026-09-03 18:18:28 | 44.43205 | 20.92316 | 0° | 0km/h | 21625m | 6.7m/s | -54.2°C | 0.0% | 0hPa | 5.6V | 00:00:00 | 00:00:00 | 00:00:00 | |
| OM5KV | 2026-09-03 18:18:22 | 44.43216 | 20.92325 | 193° | 15km/h | 21591m | 6.2m/s | -54.1°C | 0.0% | 0hPa | 5.6V | 00:00:00 | 00:00:00 | 00:00:00 | |
| OM5KV | 2026-09-03 18:18:20 | 44.43222 | 20.92329 | 202° | 13km/h | 21579m | 5.1m/s | -54.1°C | 0.0% | 0hPa | 5.6V | 00:00:00 | 00:00:00 | 00:00:00 | |
| OM5KV | 2026-09-03 18:18:17 | 44.43233 | 20.92334 | 211° | 16km/h | 21561m | 6.7m/s | -54.0°C | 0.0% | 0hPa | 5.6V | 00:00:00 | 00:00:00 | 00:00:00 | |
| OM5KV | 2026-09-03 18:18:11 | 44.43252 | 20.92345 | 162° | 7km/h | 21523m | 6.0m/s | -54.0°C | 0.0% | 0hPa | 5.6V | 00:00:00 | 00:00:00 | 00:00:00 | |
| OM5KV | 2026-09-03 18:18:10 | 44.43254 | 20.92344 | 150° | 9km/h | 21517m | 6.3m/s | -54.0°C | 0.0% | 0hPa | 5.6V | 00:00:00 | 00:00:00 | 00:00:00 | |
| OE3JTB-15 | 2026-09-03 18:18:07 | 44.43262 | 20.92339 | 177° | 18km/h | 21499m | 5.1m/s | -53.3°C | 0% | 0hPa | 5.6V | 00:00:00 | 00:00:00 | 00:00:00 | |
| OM5KV | 2026-09-03 18:18:05 | 44.43269 | 20.92342 | 210° | 18km/h | 21487m | 5.2m/s | -54.0°C | 0.0% | 0hPa | 5.6V | 00:00:00 | 00:00:00 | 00:00:00 | |
| LZ4TU-5 | 2026-09-03 18:18:01 | 44.43288 | 20.92342 | 138° | 20km/h | 21465m | 5.5m/s | -53.9°C | 0.0% | 0hPa | 5.6V | 00:00:00 | 00:00:00 | 00:00:00 | |
| OM5KV | 2026-09-03 18:17:58 | 44.43295 | 20.92329 | 131° | 11km/h | 21447m | 5.1m/s | -53.9°C | 0.0% | 0hPa | 5.6V | 00:00:00 | 00:00:00 | 00:00:00 | |
| LZ4TU-5 | 2026-09-03 18:17:56 | 44.43300 | 20.92323 | 148° | 15km/h | 21435m | 5.4m/s | -53.9°C | 0.0% | 0hPa | 5.6V | 00:00:00 | 00:00:00 | 00:00:00 | |
| OM5KV | 2026-09-03 18:17:53 | 44.43314 | 20.92319 | 173° | 26km/h | 21417m | 5.2m/s | -54.0°C | 0.0% | 0hPa | 5.6V | 00:00:00 | 00:00:00 | 00:00:00 | |
| OM5KV | 2026-09-03 18:17:52 | 44.43321 | 20.92317 | 161° | 27km/h | 21410m | 7.1m/s | -54.0°C | 0.0% | 0hPa | 5.6V | 00:00:00 | 00:00:00 | 00:00:00 | |
| OM5KV | 2026-09-03 18:17:40 | 44.43364 | 20.92264 | 129° | 26km/h | 21338m | 4.6m/s | -54.2°C | 0.0% | 0hPa | 5.6V | 00:00:00 | 00:00:00 | 00:00:00 | |
| OE3JTB-15 | 2026-09-03 18:17:38 | 44.43368 | 20.92252 | 97° | 13km/h | 21326m | 5.9m/s | -53.6°C | 0% | 0hPa | 5.6V | 00:00:00 | 00:00:00 | 00:00:00 | |
| OM5KV | 2026-09-03 18:17:31 | 44.43382 | 20.92242 | 187° | 22km/h | 21285m | 4.7m/s | -54.8°C | 0.0% | 0hPa | 5.6V | 00:00:00 | 00:00:00 | 00:00:00 | |
| OM5KV | 2026-09-03 18:17:26 | 44.43394 | 20.92233 | 28° | 2km/h | 21254m | 5.4m/s | -55.2°C | 0.0% | 0hPa | 5.6V | 00:00:00 | 00:00:00 | 00:00:00 | |
| OM5KV | 2026-09-03 18:17:22 | 44.43399 | 20.92227 | 150° | 22km/h | 21232m | 6.3m/s | -55.3°C | 0.0% | 0hPa | 5.6V | 00:00:00 | 00:00:00 | 00:00:00 | |
| OM5KV | 2026-09-03 18:17:18 | 44.43419 | 20.92215 | 140° | 15km/h | 21209m | 6.6m/s | -55.6°C | 0.0% | 0hPa | 5.6V | 00:00:00 | 00:00:00 | 00:00:00 | |
| OM5KV | 2026-09-03 18:17:17 | 44.43421 | 20.92211 | 108° | 13km/h | 21203m | 5.7m/s | -55.5°C | 0.0% | 0hPa | 5.6V | 00:00:00 | 00:00:00 | 00:00:00 | |
| OM5KV | 2026-09-03 18:17:12 | 44.43425 | 20.92202 | 181° | 9km/h | 21174m | 6.5m/s | -55.5°C | 0.0% | 0hPa | 5.6V | 00:00:00 | 00:00:00 | 00:00:00 | |
| OE3JTB-15 | 2026-09-03 18:17:08 | 44.43436 | 20.92200 | 216° | 9km/h | 21151m | 4.7m/s | -54.7°C | 0% | 0hPa | 5.6V | 00:00:00 | 00:00:00 | 00:00:00 | |
| OM5KV | 2026-09-03 18:17:04 | 44.43424 | 20.92199 | 19° | 22km/h | 21125m | 4.1m/s | -55.4°C | 0.0% | 0hPa | 5.6V | 00:00:00 | 00:00:00 | 00:00:00 | |
| OM5KV | 2026-09-03 18:17:03 | 44.43419 | 20.92197 | 14° | 16km/h | 21120m | 5.6m/s | -55.4°C | 0.0% | 0hPa | 5.6V | 00:00:00 | 00:00:00 | 00:00:00 | |
| OM5KV | 2026-09-03 18:16:58 | 44.43424 | 20.92206 | 218° | 9km/h | 21090m | 4.8m/s | -55.4°C | 0.0% | 0hPa | 5.6V | 00:00:00 | 00:00:00 | 00:00:00 | |
| OM5KV | 2026-09-03 18:16:57 | 44.43425 | 20.92208 | 262° | 5km/h | 21085m | 6.1m/s | -55.4°C | 0.0% | 0hPa | 5.6V | 00:00:00 | 00:00:00 | 00:00:00 | |
| OM5KV | 2026-09-03 18:16:53 | 44.43416 | 20.92215 | 2° | 11km/h | 21060m | 5.6m/s | -55.4°C | 0.0% | 0hPa | 5.6V | 00:00:00 | 00:00:00 | 00:00:00 | |
| OM5KV | 2026-09-03 18:16:46 | 44.43413 | 20.92227 | 242° | 5km/h | 21017m | 6.9m/s | -55.2°C | 0.0% | 0hPa | 5.6V | 00:00:00 | 00:00:00 | 00:00:00 | |
| OM5KV | 2026-09-03 18:16:45 | 44.43413 | 20.92229 | 272° | 5km/h | 21011m | 5.9m/s | -55.1°C | 0.0% | 0hPa | 5.6V | 00:00:00 | 00:00:00 | 00:00:00 | |
| OM5KV | 2026-09-03 18:16:42 | 44.43411 | 20.92233 | 323° | 7km/h | 20993m | 5.6m/s | -55.0°C | 0.0% | 0hPa | 5.6V | 00:00:00 | 00:00:00 | 00:00:00 | |
| OM5KV | 2026-09-03 18:16:40 | 44.43409 | 20.92238 | 274° | 11km/h | 20980m | 5.6m/s | -54.9°C | 0.0% | 0hPa | 5.6V | 00:00:00 | 00:00:00 | 00:00:00 | |
| LZ4TU-5 | 2026-09-03 18:16:37 | 44.43410 | 20.92246 | 248° | 2km/h | 20962m | 4.7m/s | -54.9°C | 0.0% | 0hPa | 5.6V | 00:00:00 | 00:00:00 | 00:00:00 | |
| OM5KV | 2026-09-03 18:16:36 | 44.43410 | 20.92247 | 239° | 4km/h | 20957m | 5.7m/s | -54.8°C | 0.0% | 0hPa | 5.6V | 00:00:00 | 00:00:00 | 00:00:00 | |
| OM5KV | 2026-09-03 18:16:33 | 44.43412 | 20.92256 | 242° | 11km/h | 20937m | 6.7m/s | -54.7°C | 0.0% | 0hPa | 5.6V | 00:00:00 | 00:00:00 | 00:00:00 | |
| OM5KV | 2026-09-03 18:16:32 | 44.43414 | 20.92258 | 220° | 7km/h | 20930m | 6.6m/s | -54.6°C | 0.0% | 0hPa | 5.6V | 00:00:00 | 00:00:00 | 00:00:00 | |
| OM5KV | 2026-09-03 18:16:30 | 44.43416 | 20.92259 | 182° | 2km/h | 20919m | 5.9m/s | -54.6°C | 0.0% | 0hPa | 5.6V | 00:00:00 | 00:00:00 | 00:00:00 | |
| OM5KV | 2026-09-03 18:16:26 | 44.43420 | 20.92268 | 199° | 7km/h | 20894m | 7.0m/s | -54.5°C | 0.0% | 0hPa | 5.6V | 00:00:00 | 00:00:00 | 00:00:00 | |
| OM5KV | 2026-09-03 18:16:19 | 44.43433 | 20.92273 | 179° | 4km/h | 20853m | 5.3m/s | -54.2°C | 0.0% | 0hPa | 5.6V | 00:00:00 | 00:00:00 | 00:00:00 | |
| OE3JTB-15 | 2026-09-03 18:16:18 | 44.43434 | 20.92274 | 214° | 11km/h | 20847m | 5.6m/s | -53.4°C | 0% | 0hPa | 5.6V | 00:00:00 | 00:00:00 | 00:00:00 | |
| OM5KV | 2026-09-03 18:16:15 | 44.43439 | 20.92284 | 227° | 13km/h | 20829m | 6.3m/s | -54.1°C | 0.0% | 0hPa | 5.6V | 00:00:00 | 00:00:00 | 00:00:00 | |
| OM5KV | 2026-09-03 18:16:07 | 44.43464 | 20.92296 | 186° | 15km/h | 20781m | 5.8m/s | -54.1°C | 0.0% | 0hPa | 5.6V | 00:00:00 | 00:00:00 | 00:00:00 | |
| OM5KV | 2026-09-03 18:16:06 | 44.43468 | 20.92297 | 201° | 15km/h | 20774m | 6.7m/s | -54.2°C | 0.0% | 0hPa | 5.6V | 00:00:00 | 00:00:00 | 00:00:00 | |
| OM5KV | 2026-09-03 18:16:01 | 44.43488 | 20.92308 | 191° | 20km/h | 20745m | 6.1m/s | -54.2°C | 0.0% | 0hPa | 5.6V | 00:00:00 | 00:00:00 | 00:00:00 | |
| OM5KV | 2026-09-03 18:15:52 | 44.43542 | 20.92319 | 174° | 15km/h | 20690m | 6.5m/s | -54.1°C | 0.0% | 0hPa | 5.6V | 00:00:00 | 00:00:00 | 00:00:00 | |
| OM5KV | 2026-09-03 18:15:47 | 44.43563 | 20.92323 | 193° | 20km/h | 20659m | 6.7m/s | -54.1°C | 0.0% | 0hPa | 5.6V | 00:00:00 | 00:00:00 | 00:00:00 | |
| OM5KV | 2026-09-03 18:15:45 | 44.43573 | 20.92324 | 185° | 16km/h | 20647m | 6.2m/s | -54.2°C | 0.0% | 0hPa | 5.6V | 00:00:00 | 00:00:00 | 00:00:00 | |
| OM5KV | 2026-09-03 18:15:41 | 44.43586 | 20.92325 | 139° | 9km/h | 20624m | 7.0m/s | -54.2°C | 0.0% | 0hPa | 5.6V | 00:00:00 | 00:00:00 | 00:00:00 | |
| OM5KV | 2026-09-03 18:15:35 | 44.43601 | 20.92314 | 172° | 15km/h | 20589m | 5.6m/s | -54.3°C | 0.0% | 0hPa | 5.6V | 00:00:00 | 00:00:00 | 00:00:00 | |
| OM5KV | 2026-09-03 18:15:26 | 44.43614 | 20.92303 | 153° | 7km/h | 20536m | 6.8m/s | -54.4°C | 0.0% | 0hPa | 5.6V | 00:00:00 | 00:00:00 | 00:00:00 | |
| OM5KV | 2026-09-03 18:15:25 | 44.43616 | 20.92302 | 143° | 9km/h | 20529m | 6.0m/s | -54.4°C | 0.0% | 0hPa | 5.6V | 00:00:00 | 00:00:00 | 00:00:00 | |
| LZ4TU-5 | 2026-09-03 18:15:24 | 44.43618 | 20.92299 | 144° | 13km/h | 20524m | 5.1m/s | -54.4°C | 0.0% | 0hPa | 5.6V | 00:00:00 | 00:00:00 | 00:00:00 | |
| OM5KV | 2026-09-03 18:15:21 | 44.43632 | 20.92294 | 177° | 22km/h | 20506m | 6.0m/s | -54.3°C | 0.0% | 0hPa | 5.6V | 00:00:00 | 00:00:00 | 00:00:00 | |
| LZ4TU-5 | 2026-09-03 18:15:20 | 44.43637 | 20.92293 | 173° | 20km/h | 20500m | 6.2m/s | -54.4°C | 0.0% | 0hPa | 5.6V | 00:00:00 | 00:00:00 | 00:00:00 | |
| OM5KV | 2026-09-03 18:15:16 | 44.43658 | 20.92271 | 140° | 29km/h | 20470m | 5.0m/s | -54.4°C | 0.0% | 0hPa | 5.6V | 00:00:00 | 00:00:00 | 00:00:00 | |
| OM5KV | 2026-09-03 18:15:15 | 44.43658 | 20.92271 | 140° | 29km/h | 20470m | 5.0m/s | -54.4°C | 0.0% | 0hPa | 5.6V | 00:00:00 | 00:00:00 | 00:00:00 | |
| OM5KV | 2026-09-03 18:15:09 | 44.43688 | 20.92257 | 216° | 26km/h | 20434m | 6.5m/s | -54.5°C | 0.0% | 0hPa | 5.6V | 00:00:00 | 00:00:00 | 00:00:00 | |
| OM5KV | 2026-09-03 18:15:01 | 44.43716 | 20.92240 | 100° | 18km/h | 20387m | 4.4m/s | -54.2°C | 0.0% | 0hPa | 5.6V | 00:00:00 | 00:00:00 | 00:00:00 | |
| OM5KV | 2026-09-03 18:14:55 | 44.43730 | 20.92248 | 205° | 7km/h | 20352m | 4.6m/s | -54.0°C | 0.0% | 0hPa | 5.6V | 00:00:00 | 00:00:00 | 00:00:00 | |
| OM5KV | 2026-09-03 18:14:54 | 44.43732 | 20.92247 | 122° | 9km/h | 20346m | 6.4m/s | -54.0°C | 0.0% | 0hPa | 5.6V | 00:00:00 | 00:00:00 | 00:00:00 | |
| OM5KV | 2026-09-03 18:14:48 | 44.43736 | 20.92209 | 39° | 11km/h | 20309m | 5.4m/s | -53.8°C | 0.0% | 0hPa | 5.6V | 00:00:00 | 00:00:00 | 00:00:00 | |
| OM5KV | 2026-09-03 18:14:42 | 44.43746 | 20.92216 | 118° | 7km/h | 20273m | 5.7m/s | -54.5°C | 0.0% | 0hPa | 5.6V | 00:00:00 | 00:00:00 | 00:00:00 | |
| OM5KV | 2026-09-03 18:14:41 | 44.43745 | 20.92212 | 71° | 13km/h | 20267m | 5.9m/s | -54.5°C | 0.0% | 0hPa | 5.6V | 00:00:00 | 00:00:00 | 00:00:00 | |
| OM5KV | 2026-09-03 18:14:37 | 44.43738 | 20.92189 | 69° | 18km/h | 20243m | 5.9m/s | -54.6°C | 0.0% | 0hPa | 5.6V | 00:00:00 | 00:00:00 | 00:00:00 | |
| OM5KV | 2026-09-03 18:14:31 | 44.43738 | 20.92175 | 191° | 5km/h | 20207m | 6.6m/s | -54.4°C | 0.0% | 0hPa | 5.6V | 00:00:00 | 00:00:00 | 00:00:00 | |
| OM5KV | 2026-09-03 18:14:26 | 44.43740 | 20.92161 | 101° | 13km/h | 20178m | 5.7m/s | -54.2°C | 0.0% | 0hPa | 5.6V | 00:00:00 | 00:00:00 | 00:00:00 | |
| OM5KV | 2026-09-03 18:14:25 | 44.43740 | 20.92157 | 88° | 11km/h | 20172m | 6.0m/s | -54.2°C | 0.0% | 0hPa | 5.6V | 00:00:00 | 00:00:00 | 00:00:00 | |
| OM5KV | 2026-09-03 18:14:21 | 44.43742 | 20.92157 | 211° | 18km/h | 20150m | 6.2m/s | -54.2°C | 0.0% | 0hPa | 5.6V | 00:00:00 | 00:00:00 | 00:00:00 | |
| OM5KV | 2026-09-03 18:14:19 | 44.43751 | 20.92160 | 175° | 18km/h | 20137m | 7.3m/s | -54.2°C | 0.0% | 0hPa | 5.6V | 00:00:00 | 00:00:00 | 00:00:00 | |
| OE3JTB-15 | 2026-09-03 18:14:18 | 44.43755 | 20.92158 | 138° | 29km/h | 20131m | 6.2m/s | -53.4°C | 0% | 0hPa | 5.6V | 00:00:00 | 00:00:00 | 00:00:00 | |
| OM5KV | 2026-09-03 18:14:06 | 44.43782 | 20.92130 | 140° | 31km/h | 20056m | 6.9m/s | -54.6°C | 0.0% | 0hPa | 5.6V | 00:00:00 | 00:00:00 | 00:00:00 | |
| LZ4TU-5 | 2026-09-03 18:14:05 | 44.43789 | 20.92121 | 138° | 40km/h | 20049m | 5.7m/s | -54.6°C | 0.0% | 0hPa | 5.6V | 00:00:00 | 00:00:00 | 00:00:00 | |
| OM5KV | 2026-09-03 18:14:04 | 44.43797 | 20.92112 | 144° | 42km/h | 20044m | 6.3m/s | -54.7°C | 0.0% | 0hPa | 5.6V | 00:00:00 | 00:00:00 | 00:00:00 | |
| OM5KV | 2026-09-03 18:14:03 | 44.43806 | 20.92104 | 155° | 37km/h | 20038m | 5.7m/s | -54.7°C | 0.0% | 0hPa | 5.6V | 00:00:00 | 00:00:00 | 00:00:00 | |
| LZ4TU-5 | 2026-09-03 18:14:00 | 44.43825 | 20.92098 | 169° | 18km/h | 20019m | 6.7m/s | -54.8°C | 0.0% | 0hPa | 5.6V | 00:00:00 | 00:00:00 | 00:00:00 | |
| OM5KV | 2026-09-03 18:13:58 | 44.43834 | 20.92094 | 155° | 18km/h | 20007m | 6.1m/s | -54.9°C | 0.0% | 0hPa | 5.6V | 00:00:00 | 00:00:00 | 00:00:00 | |
| OM5KV | 2026-09-03 18:13:57 | 44.43838 | 20.92091 | 160° | 24km/h | 20001m | 6.3m/s | -55.0°C | 0.0% | 0hPa | 5.6V | 00:00:00 | 00:00:00 | 00:00:00 | |
| OM5KV | 2026-09-03 18:13:55 | 44.43853 | 20.92084 | 158° | 37km/h | 19989m | 5.9m/s | -55.0°C | 0.0% | 0hPa | 5.6V | 00:00:00 | 00:00:00 | 00:00:00 | |
| OE3JTB-15 | 2026-09-03 18:13:30 | 44.44008 | 20.91856 | 116° | 37km/h | 19842m | 6.5m/s | -54.6°C | 0% | 0hPa | 5.6V | 00:00:00 | 00:00:00 | 00:00:00 | |
| LZ4TU-5 | 2026-09-03 18:12:44 | 44.44107 | 20.91390 | 113° | 20km/h | 19580m | 6.0m/s | -55.5°C | 0.0% | 0hPa | 0V | 00:00:00 | 00:00:00 | 00:00:00 | |
| LZ4TU-5 | 2026-09-03 18:12:39 | 44.44119 | 20.91371 | 149° | 15km/h | 19550m | 6.3m/s | -55.4°C | 0.0% | 0hPa | 0V | 00:00:00 | 00:00:00 | 00:00:00 | |
| OM5KV | 2026-09-03 18:12:21 | 44.44177 | 20.91270 | 111° | 22km/h | 19446m | 5.8m/s | -55.7°C | 0.0% | 0hPa | 0V | 00:00:00 | 00:00:00 | 00:00:00 | |
| OM5KV | 2026-09-03 18:12:13 | 44.44196 | 20.91241 | 125° | 22km/h | 19401m | 5.7m/s | -55.6°C | 0.0% | 0hPa | 0V | 00:00:00 | 00:00:00 | 00:00:00 | |
| OM5KV | 2026-09-03 18:12:11 | 44.44201 | 20.91227 | 102° | 20km/h | 19390m | 4.9m/s | -55.6°C | 0.0% | 0hPa | 0V | 00:00:00 | 00:00:00 | 00:00:00 | |
| LZ4TU-5 | 2026-09-03 18:12:05 | 44.44205 | 20.91204 | 174° | 15km/h | 19359m | 5.9m/s | -55.4°C | 0.0% | 0hPa | 0V | 00:00:00 | 00:00:00 | 00:00:00 | |
| OM5KV | 2026-09-03 18:12:01 | 44.44218 | 20.91187 | 113° | 22km/h | 19339m | 4.5m/s | -55.5°C | 0.0% | 0hPa | 0V | 00:00:00 | 00:00:00 | 00:00:00 | |
| LZ4TU-5 | 2026-09-03 18:12:00 | 44.44219 | 20.91180 | 95° | 18km/h | 19333m | 6.2m/s | -55.5°C | 0.0% | 0hPa | 0V | 00:00:00 | 00:00:00 | 00:00:00 | |
| OM5KV | 2026-09-03 18:11:57 | 44.44215 | 20.91165 | 71° | 13km/h | 19315m | 6.3m/s | -55.4°C | 0.0% | 0hPa | 0V | 00:00:00 | 00:00:00 | 00:00:00 | |
| OM5KV | 2026-09-03 18:11:46 | 44.44219 | 20.91086 | 91° | 20km/h | 19251m | 5.5m/s | -55.6°C | 0.0% | 0hPa | 0V | 00:00:00 | 00:00:00 | 00:00:00 | |
| OM5KV | 2026-09-03 18:11:40 | 44.44228 | 20.91049 | 114° | 26km/h | 19217m | 5.7m/s | -55.3°C | 0.0% | 0hPa | 0V | 00:00:00 | 00:00:00 | 00:00:00 | |
| OM5KV | 2026-09-03 18:11:33 | 44.44236 | 20.91009 | 151° | 11km/h | 19178m | 6.3m/s | -55.0°C | 0.0% | 0hPa | 0V | 00:00:00 | 00:00:00 | 00:00:00 | |
| OM5KV | 2026-09-03 18:11:31 | 44.44242 | 20.91001 | 125° | 22km/h | 19167m | 6.3m/s | -54.9°C | 0.0% | 0hPa | 0V | 00:00:00 | 00:00:00 | 00:00:00 | |
| OM5KV | 2026-09-03 18:11:26 | 44.44251 | 20.90959 | 109° | 26km/h | 19136m | 6.5m/s | -54.8°C | 0.0% | 0hPa | 0V | 00:00:00 | 00:00:00 | 00:00:00 | |
| OM5KV | 2026-09-03 18:11:24 | 44.44257 | 20.90945 | 140° | 18km/h | 19122m | 6.8m/s | -54.8°C | 0.0% | 0hPa | 0V | 00:00:00 | 00:00:00 | 00:00:00 | |
| OM5KV | 2026-09-03 18:11:22 | 44.44264 | 20.90941 | 162° | 15km/h | 19110m | 5.8m/s | -54.7°C | 0.0% | 0hPa | 0V | 00:00:00 | 00:00:00 | 00:00:00 | |
| OM5KV | 2026-09-03 18:11:17 | 44.44282 | 20.90916 | 123° | 29km/h | 19081m | 6.2m/s | -54.7°C | 0.0% | 0hPa | 0V | 00:00:00 | 00:00:00 | 00:00:00 | |
| OM5KV | 2026-09-03 18:11:15 | 44.44291 | 20.90897 | 131° | 33km/h | 19069m | 6.9m/s | -54.7°C | 0.0% | 0hPa | 0V | 00:00:00 | 00:00:00 | 00:00:00 | |
| OM5KV | 2026-09-03 18:11:11 | 44.44310 | 20.90883 | 181° | 20km/h | 19046m | 6.0m/s | -54.8°C | 0.0% | 0hPa | 0V | 00:00:00 | 00:00:00 | 00:00:00 | |
| OM5KV | 2026-09-03 18:11:06 | 44.44334 | 20.90861 | 133° | 27km/h | 19019m | 4.6m/s | -55.2°C | 0.0% | 0hPa | 0V | 00:00:00 | 00:00:00 | 00:00:00 | |
| OM5KV | 2026-09-03 18:11:05 | 44.44339 | 20.90854 | 140° | 31km/h | 19014m | 5.2m/s | -55.3°C | 0.0% | 0hPa | 0V | 00:00:00 | 00:00:00 | 00:00:00 | |
| OM5KV | 2026-09-03 18:11:00 | 44.44366 | 20.90832 | 155° | 22km/h | 18988m | 5.7m/s | -55.3°C | 0.0% | 0hPa | 0V | 00:00:00 | 00:00:00 | 00:00:00 | |
| OM5KV | 2026-09-03 18:10:54 | 44.44395 | 20.90792 | 130° | 33km/h | 18956m | 6.0m/s | -55.6°C | 0.0% | 0hPa | 0V | 00:00:00 | 00:00:00 | 00:00:00 | |
| OM5KV | 2026-09-03 18:10:53 | 44.44401 | 20.90783 | 138° | 37km/h | 18949m | 5.9m/s | -55.6°C | 0.0% | 0hPa | 0V | 00:00:00 | 00:00:00 | 00:00:00 | |
| OM5KV | 2026-09-03 18:10:49 | 44.44424 | 20.90755 | 133° | 24km/h | 18927m | 4.2m/s | -55.7°C | 0.0% | 0hPa | 0V | 00:00:00 | 00:00:00 | 00:00:00 | |
| OM5KV | 2026-09-03 18:10:47 | 44.44433 | 20.90742 | 133° | 29km/h | 18916m | 5.4m/s | -55.8°C | 0.0% | 0hPa | 0V | 00:00:00 | 00:00:00 | 00:00:00 | |
| OM5KV | 2026-09-03 18:10:43 | 44.44448 | 20.90706 | 114° | 31km/h | 18895m | 4.8m/s | -55.9°C | 0.0% | 0hPa | 0V | 00:00:00 | 00:00:00 | 00:00:00 | |
| OM5KV | 2026-09-03 18:10:42 | 44.44452 | 20.90696 | 118° | 33km/h | 18888m | 6.4m/s | -55.9°C | 0.0% | 0hPa | 0V | 00:00:00 | 00:00:00 | 00:00:00 | |
| OM5KV | 2026-09-03 18:10:36 | 44.44472 | 20.90636 | 109° | 31km/h | 18855m | 4.8m/s | -56.1°C | 0.0% | 0hPa | 0V | 00:00:00 | 00:00:00 | 00:00:00 | |
| OM5KV | 2026-09-03 18:10:35 | 44.44473 | 20.90625 | 102° | 33km/h | 18850m | 6.1m/s | -56.1°C | 0.0% | 0hPa | 0V | 00:00:00 | 00:00:00 | 00:00:00 | |
| OM5KV | 2026-09-03 18:10:30 | 44.44482 | 20.90556 | 105° | 46km/h | 18823m | 5.0m/s | -56.2°C | 0.0% | 0hPa | 0V | 00:00:00 | 00:00:00 | 00:00:00 | |
| OM5KV | 2026-09-03 18:10:25 | 44.44486 | 20.90479 | 96° | 42km/h | 18796m | 4.6m/s | -56.1°C | 0.0% | 0hPa | 0V | 00:00:00 | 00:00:00 | 00:00:00 | |
| LZ4TU-5 | 2026-09-03 18:10:23 | 44.44486 | 20.90451 | 86° | 40km/h | 18785m | 5.1m/s | -56.0°C | 0.0% | 0hPa | 0V | 00:00:00 | 00:00:00 | 00:00:00 | |
| OM5KV | 2026-09-03 18:10:19 | 44.44485 | 20.90395 | 90° | 42km/h | 18767m | 5.2m/s | -55.9°C | 0.0% | 0hPa | 0V | 00:00:00 | 00:00:00 | 00:00:00 | |
| LZ4TU-5 | 2026-09-03 18:10:18 | 44.44485 | 20.90380 | 87° | 44km/h | 18761m | 5.7m/s | -55.8°C | 0.0% | 0hPa | 0V | 00:00:00 | 00:00:00 | 00:00:00 | |
| OM5KV | 2026-09-03 18:10:14 | 44.44485 | 20.90317 | 97° | 38km/h | 18740m | 4.3m/s | -55.7°C | 0.0% | 0hPa | 0V | 00:00:00 | 00:00:00 | 00:00:00 | |
| OM5KV | 2026-09-03 18:10:13 | 44.44486 | 20.90304 | 93° | 37km/h | 18735m | 5.2m/s | -55.7°C | 0.0% | 0hPa | 0V | 00:00:00 | 00:00:00 | 00:00:00 | |
| OM5KV | 2026-09-03 18:10:05 | 44.44480 | 20.90182 | 82° | 42km/h | 18694m | 4.3m/s | -55.5°C | 0.0% | 0hPa | 0V | 00:00:00 | 00:00:00 | 00:00:00 | |
| OM5KV | 2026-09-03 18:10:01 | 44.44479 | 20.90134 | 87° | 29km/h | 18674m | 5.4m/s | -55.5°C | 0.0% | 0hPa | 0V | 00:00:00 | 00:00:00 | 00:00:00 | |
| OM5KV | 2026-09-03 18:09:55 | 44.44468 | 20.90044 | 74° | 49km/h | 18642m | 5.5m/s | -55.4°C | 0.0% | 0hPa | 0V | 00:00:00 | 00:00:00 | 00:00:00 | |
| OM5KV | 2026-09-03 18:09:45 | 44.44448 | 20.89918 | 79° | 40km/h | 18594m | 4.8m/s | -55.4°C | 0.0% | 0hPa | 0V | 00:00:00 | 00:00:00 | 00:00:00 | |
| OM5KV | 2026-09-03 18:09:42 | 44.44438 | 20.89879 | 64° | 42km/h | 18578m | 6.4m/s | -55.4°C | 0.0% | 0hPa | 0V | 00:00:00 | 00:00:00 | 00:00:00 | |
| OM5KV | 2026-09-03 18:09:39 | 44.44423 | 20.89839 | 64° | 40km/h | 18562m | 5.5m/s | -55.4°C | 0.0% | 0hPa | 0V | 00:00:00 | 00:00:00 | 00:00:00 | |
| OM5KV | 2026-09-03 18:09:34 | 44.44399 | 20.89783 | 61° | 44km/h | 18536m | 5.1m/s | -55.5°C | 0.0% | 0hPa | 0V | 00:00:00 | 00:00:00 | 00:00:00 | |
| OM5KV | 2026-09-03 18:09:33 | 44.44395 | 20.89770 | 62° | 42km/h | 18531m | 5.4m/s | -55.4°C | 0.0% | 0hPa | 0V | 00:00:00 | 00:00:00 | 00:00:00 | |
| LZ4TU-5 | 2026-09-03 18:09:32 | 44.44390 | 20.89758 | 62° | 40km/h | 18526m | 4.4m/s | -55.4°C | 0.0% | 0hPa | 0V | 00:00:00 | 00:00:00 | 00:00:00 | |
| OM5KV | 2026-09-03 18:09:29 | 44.44374 | 20.89720 | 60° | 42km/h | 18511m | 4.2m/s | -55.5°C | 0.0% | 0hPa | 0V | 00:00:00 | 00:00:00 | 00:00:00 | |
| LZ4TU-5 | 2026-09-03 18:09:27 | 44.44366 | 20.89698 | 66° | 31km/h | 18502m | 5.7m/s | -55.6°C | 0.1% | 0hPa | 0V | 00:00:00 | 00:00:00 | 00:00:00 | |
| OM5KV | 2026-09-03 18:09:26 | 44.44362 | 20.89687 | 69° | 33km/h | 18496m | 5.0m/s | -55.6°C | 0.1% | 0hPa | 0V | 00:00:00 | 00:00:00 | 00:00:00 | |
| OM5KV | 2026-09-03 18:09:23 | 44.44353 | 20.89653 | 67° | 42km/h | 18481m | 4.0m/s | -55.5°C | 0.1% | 0hPa | 0V | 00:00:00 | 00:00:00 | 00:00:00 | |
| OM5KV | 2026-09-03 18:09:22 | 44.44348 | 20.89640 | 63° | 42km/h | 18477m | 5.0m/s | -55.5°C | 0.1% | 0hPa | 0V | 00:00:00 | 00:00:00 | 00:00:00 | |
| OM5KV | 2026-09-03 18:09:19 | 44.44333 | 20.89606 | 60° | 33km/h | 18462m | 4.9m/s | -55.4°C | 0.1% | 0hPa | 0V | 00:00:00 | 00:00:00 | 00:00:00 | |
| OM5KV | 2026-09-03 18:09:18 | 44.44329 | 20.89596 | 65° | 31km/h | 18457m | 5.5m/s | -55.4°C | 0.1% | 0hPa | 0V | 00:00:00 | 00:00:00 | 00:00:00 | |
| OM5KV | 2026-09-03 18:09:17 | 44.44325 | 20.89586 | 66° | 31km/h | 18451m | 5.1m/s | -55.4°C | 0.1% | 0hPa | 0V | 00:00:00 | 00:00:00 | 00:00:00 | |
| OM5KV | 2026-09-03 18:09:11 | 44.44295 | 20.89544 | 52° | 33km/h | 18420m | 5.1m/s | -55.3°C | 0.2% | 0hPa | 0V | 00:00:00 | 00:00:00 | 00:00:00 | |
| OM5KV | 2026-09-03 18:09:08 | 44.44283 | 20.89514 | 67° | 29km/h | 18405m | 5.3m/s | -55.2°C | 0.2% | 0hPa | 0V | 00:00:00 | 00:00:00 | 00:00:00 | |
| OM5KV | 2026-09-03 18:09:05 | 44.44277 | 20.89491 | 55° | 15km/h | 18389m | 6.1m/s | -55.1°C | 0.2% | 0hPa | 0V | 00:00:00 | 00:00:00 | 00:00:00 | |
| OM5KV | 2026-09-03 18:08:59 | 44.44251 | 20.89471 | 66° | 20km/h | 18357m | 5.0m/s | -54.8°C | 0.3% | 0hPa | 0V | 00:00:00 | 00:00:00 | 00:00:00 | |
| OM5KV | 2026-09-03 18:08:55 | 44.44245 | 20.89436 | 72° | 27km/h | 18336m | 4.5m/s | -54.7°C | 0.3% | 0hPa | 0V | 00:00:00 | 00:00:00 | 00:00:00 | |
| LZ4TU-5 | 2026-09-03 18:08:54 | 44.44242 | 20.89427 | 73° | 24km/h | 18332m | 5.5m/s | -54.6°C | 0.3% | 0hPa | 0V | 00:00:00 | 00:00:00 | 00:00:00 | |
| OM5KV | 2026-09-03 18:08:49 | 44.44227 | 20.89414 | 4° | 15km/h | 18305m | 5.4m/s | -54.4°C | 0.3% | 0hPa | 0V | 00:00:00 | 00:00:00 | 00:00:00 | |
| OM5KV | 2026-09-03 18:08:44 | 44.44213 | 20.89386 | 65° | 24km/h | 18279m | 4.6m/s | -54.3°C | 0.3% | 0hPa | 0V | 00:00:00 | 00:00:00 | 00:00:00 | |
| OM5KV | 2026-09-03 18:08:43 | 44.44210 | 20.89379 | 70° | 20km/h | 18275m | 5.3m/s | -54.3°C | 0.3% | 0hPa | 0V | 00:00:00 | 00:00:00 | 00:00:00 | |
| OM5KV | 2026-09-03 18:08:37 | 44.44201 | 20.89364 | 46° | 5km/h | 18243m | 5.0m/s | -54.0°C | 0.3% | 0hPa | 0V | 00:00:00 | 00:00:00 | 00:00:00 | |
| OM5KV | 2026-09-03 18:08:36 | 44.44201 | 20.89362 | 63° | 11km/h | 18238m | 5.0m/s | -54.0°C | 0.3% | 0hPa | 0V | 00:00:00 | 00:00:00 | 00:00:00 | |
| OM5KV | 2026-09-03 18:08:32 | 44.44190 | 20.89342 | 69° | 15km/h | 18215m | 6.1m/s | -53.8°C | 0.3% | 0hPa | 0V | 00:00:00 | 00:00:00 | 00:00:00 | |
| OM5KV | 2026-09-03 18:08:31 | 44.44190 | 20.89338 | 93° | 9km/h | 18210m | 5.4m/s | -53.8°C | 0.3% | 0hPa | 0V | 00:00:00 | 00:00:00 | 00:00:00 | |
| OM5KV | 2026-09-03 18:08:30 | 44.44190 | 20.89336 | 104° | 7km/h | 18204m | 5.9m/s | -53.7°C | 0.2% | 0hPa | 0V | 00:00:00 | 00:00:00 | 00:00:00 | |
| OM5KV | 2026-09-03 18:08:26 | 44.44190 | 20.89323 | 98° | 13km/h | 18180m | 4.8m/s | -53.6°C | 0.2% | 0hPa | 0V | 00:00:00 | 00:00:00 | 00:00:00 | |
| OM5KV | 2026-09-03 18:08:24 | 44.44190 | 20.89314 | 62° | 15km/h | 18170m | 6.8m/s | -53.6°C | 0.2% | 0hPa | 0V | 00:00:00 | 00:00:00 | 00:00:00 | |
| OM5KV | 2026-09-03 18:08:18 | 44.44188 | 20.89298 | 182° | 18km/h | 18134m | 5.9m/s | -53.5°C | 0.2% | 0hPa | 0V | 00:00:00 | 00:00:00 | 00:00:00 | |
| OM5KV | 2026-09-03 18:08:11 | 44.44195 | 20.89275 | 97° | 16km/h | 18095m | 5.0m/s | -53.5°C | 0.2% | 0hPa | 0V | 00:00:00 | 00:00:00 | 00:00:00 | |
| OM5KV | 2026-09-03 18:08:06 | 44.44203 | 20.89253 | 181° | 16km/h | 18066m | 5.0m/s | -53.8°C | 0.3% | 0hPa | 0V | 00:00:00 | 00:00:00 | 00:00:00 | |
| OM5KV | 2026-09-03 18:08:05 | 44.44207 | 20.89254 | 200° | 13km/h | 18062m | 4.8m/s | -53.9°C | 0.3% | 0hPa | 0V | 00:00:00 | 00:00:00 | 00:00:00 | |
| LZ4TU-5 | 2026-09-03 18:08:03 | 44.44211 | 20.89252 | 100° | 13km/h | 18052m | 4.7m/s | -54.0°C | 0.3% | 0hPa | 0V | 00:00:00 | 00:00:00 | 00:00:00 | |
| OM5KV | 2026-09-03 18:07:59 | 44.44220 | 20.89220 | 129° | 33km/h | 18030m | 5.0m/s | -54.0°C | 0.3% | 0hPa | 0V | 00:00:00 | 00:00:00 | 00:00:00 | |
| LZ4TU-5 | 2026-09-03 18:07:58 | 44.44225 | 20.89211 | 135° | 31km/h | 18025m | 5.6m/s | -53.9°C | 0.3% | 0hPa | 0V | 00:00:00 | 00:00:00 | 00:00:00 | |
| OM5KV | 2026-09-03 18:07:53 | 44.44248 | 20.89181 | 127° | 33km/h | 17999m | 5.1m/s | -54.1°C | 0.3% | 0hPa | 0V | 00:00:00 | 00:00:00 | 00:00:00 | |
| OM5KV | 2026-09-03 18:07:50 | 44.44254 | 20.89157 | 95° | 22km/h | 17983m | 4.8m/s | -54.1°C | 0.3% | 0hPa | 0V | 00:00:00 | 00:00:00 | 00:00:00 | |
| OM5KV | 2026-09-03 18:07:41 | 44.44277 | 20.89077 | 103° | 20km/h | 17937m | 5.4m/s | -53.9°C | 0.3% | 0hPa | 0V | 00:00:00 | 00:00:00 | 00:00:00 | |
| OM5KV | 2026-09-03 18:07:38 | 44.44280 | 20.89059 | 111° | 16km/h | 17923m | 5.1m/s | -53.8°C | 0.2% | 0hPa | 0V | 00:00:00 | 00:00:00 | 00:00:00 | |
| LZ4TU-5 | 2026-09-03 18:07:25 | 44.44323 | 20.88954 | 119° | 31km/h | 17848m | 6.1m/s | -54.4°C | 0.3% | 0hPa | 0V | 00:00:00 | 00:00:00 | 00:00:00 | |
| OM5KV | 2026-09-03 18:07:21 | 44.44340 | 20.88911 | 129° | 38km/h | 17823m | 6.4m/s | -54.4°C | 0.3% | 0hPa | 0V | 00:00:00 | 00:00:00 | 00:00:00 | |
| OM5KV | 2026-09-03 18:07:01 | 44.44473 | 20.88645 | 115° | 53km/h | 17711m | 5.7m/s | -55.0°C | 0.4% | 0hPa | 0V | 00:00:00 | 00:00:00 | 00:00:00 | |
| OM5KV | 2026-09-03 18:06:56 | 44.44506 | 20.88565 | 130° | 44km/h | 17685m | 5.1m/s | -55.1°C | 0.4% | 0hPa | 0V | 00:00:00 | 00:00:00 | 00:00:00 | |
| OM5KV | 2026-09-03 18:06:44 | 44.44564 | 20.88382 | 109° | 37km/h | 17622m | 5.4m/s | -55.2°C | 0.4% | 0hPa | 0V | 00:00:00 | 00:00:00 | 00:00:00 | |
| OM5KV | 2026-09-03 18:06:42 | 44.44571 | 20.88358 | 113° | 40km/h | 17610m | 5.2m/s | -55.3°C | 0.5% | 0hPa | 0V | 00:00:00 | 00:00:00 | 00:00:00 | |
| LZ4TU-5 | 2026-09-03 18:06:35 | 44.44590 | 20.88239 | 102° | 46km/h | 17574m | 5.5m/s | -55.7°C | 0.6% | 0hPa | 0V | 00:00:00 | 00:00:00 | 00:00:00 | |
| OM5KV | 2026-09-03 18:06:31 | 44.44596 | 20.88191 | 106° | 31km/h | 17550m | 5.0m/s | -55.7°C | 0.6% | 0hPa | 0V | 00:00:00 | 00:00:00 | 00:00:00 | |
| LZ4TU-5 | 2026-09-03 18:06:30 | 44.44597 | 20.88180 | 99° | 40km/h | 17546m | 6.0m/s | -55.7°C | 0.6% | 0hPa | 0V | 00:00:00 | 00:00:00 | 00:00:00 | |
| OM5KV | 2026-09-03 18:06:28 | 44.44599 | 20.88152 | 91° | 44km/h | 17534m | 5.2m/s | -55.7°C | 0.6% | 0hPa | 0V | 00:00:00 | 00:00:00 | 00:00:00 | |
| OM5KV | 2026-09-03 18:06:19 | 44.44614 | 20.88034 | 97° | 40km/h | 17485m | 5.1m/s | -55.7°C | 0.6% | 0hPa | 0V | 00:00:00 | 00:00:00 | 00:00:00 | |
| OM5KV | 2026-09-03 18:06:13 | 44.44621 | 20.87955 | 106° | 37km/h | 17453m | 5.7m/s | -55.5°C | 0.6% | 0hPa | 0V | 00:00:00 | 00:00:00 | 00:00:00 | |
| OM5KV | 2026-09-03 18:06:12 | 44.44624 | 20.87943 | 106° | 35km/h | 17447m | 5.2m/s | -55.5°C | 0.6% | 0hPa | 0V | 00:00:00 | 00:00:00 | 00:00:00 | |
| OM5KV | 2026-09-03 18:06:05 | 44.44645 | 20.87849 | 102° | 42km/h | 17408m | 5.6m/s | -55.5°C | 0.6% | 0hPa | 0V | 00:00:00 | 00:00:00 | 00:00:00 | |
| OM5KV | 2026-09-03 18:06:02 | 44.44649 | 20.87807 | 97° | 40km/h | 17391m | 4.8m/s | -55.7°C | 0.6% | 0hPa | 0V | 00:00:00 | 00:00:00 | 00:00:00 | |
| OM5KV | 2026-09-03 18:05:59 | 44.44656 | 20.87759 | 104° | 49km/h | 17374m | 5.2m/s | -55.9°C | 0.7% | 0hPa | 0V | 00:00:00 | 00:00:00 | 00:00:00 | |
| OM5KV | 2026-09-03 18:05:57 | 44.44662 | 20.87726 | 105° | 47km/h | 17364m | 4.9m/s | -56.2°C | 0.7% | 0hPa | 0V | 00:00:00 | 00:00:00 | 00:00:00 | |
| OM5KV | 2026-09-03 18:05:54 | 44.44671 | 20.87677 | 103° | 44km/h | 17348m | 5.4m/s | -56.3°C | 0.8% | 0hPa | 0V | 00:00:00 | 00:00:00 | 00:00:00 | |
| LZ4TU-5 | 2026-09-03 18:05:52 | 44.44674 | 20.87649 | 96° | 38km/h | 17336m | 5.4m/s | -56.3°C | 0.8% | 0hPa | 0V | 00:00:00 | 00:00:00 | 00:00:00 | |
| OM5KV | 2026-09-03 18:05:47 | 44.44680 | 20.87581 | 106° | 37km/h | 17307m | 5.5m/s | -56.3°C | 0.8% | 0hPa | 0V | 00:00:00 | 00:00:00 | 00:00:00 | |
| OM5KV | 2026-09-03 18:05:46 | 44.44682 | 20.87568 | 111° | 37km/h | 17301m | 6.1m/s | -56.3°C | 0.8% | 0hPa | 0V | 00:00:00 | 00:00:00 | 00:00:00 | |
| OM5KV | 2026-09-03 18:05:41 | 44.44695 | 20.87512 | 96° | 33km/h | 17277m | 5.1m/s | -56.2°C | 0.8% | 0hPa | 0V | 00:00:00 | 00:00:00 | 00:00:00 | |
| OM5KV | 2026-09-03 18:05:40 | 44.44695 | 20.87500 | 96° | 38km/h | 17272m | 5.3m/s | -56.2°C | 0.9% | 0hPa | 0V | 00:00:00 | 00:00:00 | 00:00:00 | |
| OM5KV | 2026-09-03 18:05:35 | 44.44699 | 20.87433 | 100° | 33km/h | 17249m | 4.5m/s | -56.1°C | 0.9% | 0hPa | 0V | 00:00:00 | 00:00:00 | 00:00:00 | |
| OM5KV | 2026-09-03 18:05:34 | 44.44702 | 20.87421 | 110° | 35km/h | 17244m | 5.7m/s | -56.1°C | 0.9% | 0hPa | 0V | 00:00:00 | 00:00:00 | 00:00:00 | |
| OM5KV | 2026-09-03 18:05:29 | 44.44725 | 20.87362 | 116° | 38km/h | 17217m | 5.6m/s | -55.9°C | 0.8% | 0hPa | 0V | 00:00:00 | 00:00:00 | 00:00:00 | |
| OM5KV | 2026-09-03 18:05:24 | 44.44737 | 20.87303 | 115° | 35km/h | 17190m | 5.4m/s | -55.7°C | 0.8% | 0hPa | 0V | 00:00:00 | 00:00:00 | 00:00:00 | |
| OM5KV | 2026-09-03 18:05:23 | 44.44741 | 20.87291 | 119° | 40km/h | 17184m | 6.1m/s | -55.7°C | 0.8% | 0hPa | 0V | 00:00:00 | 00:00:00 | 00:00:00 | |
| OM5KV | 2026-09-03 18:05:12 | 44.44782 | 20.87151 | 112° | 42km/h | 17125m | 5.1m/s | -55.7°C | 0.7% | 0hPa | 0V | 00:00:00 | 00:00:00 | 00:00:00 | |
| OM5KV | 2026-09-03 18:05:11 | 44.44787 | 20.87136 | 121° | 46km/h | 17120m | 5.5m/s | -55.7°C | 0.7% | 0hPa | 0V | 00:00:00 | 00:00:00 | 00:00:00 | |
| OM5KV | 2026-09-03 18:05:10 | 44.44794 | 20.87123 | 128° | 47km/h | 17114m | 6.2m/s | -55.7°C | 0.7% | 0hPa | 0V | 00:00:00 | 00:00:00 | 00:00:00 | |
| LZ4TU-5 | 2026-09-03 18:05:05 | 44.44829 | 20.87054 | 113° | 38km/h | 17087m | 5.1m/s | -55.7°C | 0.7% | 0hPa | 0V | 00:00:00 | 00:00:00 | 00:00:00 | |
| LZ4TU-5 | 2026-09-03 18:05:01 | 44.44837 | 20.87001 | 103° | 37km/h | 17065m | 5.6m/s | -55.9°C | 0.8% | 0hPa | 0V | 00:00:00 | 00:00:00 | 00:00:00 | |
| OM5KV | 2026-09-03 18:04:59 | 44.44843 | 20.86976 | 116° | 42km/h | 17054m | 4.9m/s | -56.1°C | 0.8% | 0hPa | 0V | 00:00:00 | 00:00:00 | 00:00:00 | |
| OM5KV | 2026-09-03 18:04:56 | 44.44860 | 20.86930 | 121° | 53km/h | 17039m | 5.1m/s | -56.2°C | 0.8% | 0hPa | 0V | 00:00:00 | 00:00:00 | 00:00:00 | |
| OM5KV | 2026-09-03 18:04:55 | 44.44867 | 20.86914 | 123° | 49km/h | 17034m | 5.4m/s | -56.3°C | 0.8% | 0hPa | 0V | 00:00:00 | 00:00:00 | 00:00:00 | |
| OM5KV | 2026-09-03 18:04:49 | 44.44897 | 20.86830 | 107° | 40km/h | 17003m | 4.8m/s | -56.3°C | 0.9% | 0hPa | 0V | 00:00:00 | 00:00:00 | 00:00:00 | |
| OM5KV | 2026-09-03 18:04:48 | 44.44899 | 20.86815 | 103° | 44km/h | 16998m | 4.5m/s | -56.3°C | 0.9% | 0hPa | 0V | 00:00:00 | 00:00:00 | 00:00:00 | |
| OM5KV | 2026-09-03 18:04:47 | 44.44902 | 20.86799 | 104° | 51km/h | 16993m | 6.2m/s | -56.5°C | 0.9% | 0hPa | 0V | 00:00:00 | 00:00:00 | 00:00:00 | |
| OM5KV | 2026-09-03 18:04:43 | 44.44917 | 20.86729 | 111° | 51km/h | 16971m | 5.6m/s | -56.6°C | 1.0% | 0hPa | 0V | 00:00:00 | 00:00:00 | 00:00:00 | |
| OM5KV | 2026-09-03 18:04:34 | 44.44966 | 20.86579 | 115° | 53km/h | 16925m | 5.7m/s | -56.5°C | 1.0% | 0hPa | 0V | 00:00:00 | 00:00:00 | 00:00:00 | |
| OM5KV | 2026-09-03 18:04:33 | 44.44971 | 20.86562 | 112° | 47km/h | 16919m | 5.1m/s | -56.4°C | 1.0% | 0hPa | 0V | 00:00:00 | 00:00:00 | 00:00:00 | |
| OM5KV | 2026-09-03 18:04:27 | 44.44991 | 20.86473 | 108° | 42km/h | 16888m | 5.2m/s | -56.3°C | 1.0% | 0hPa | 0V | 00:00:00 | 00:00:00 | 00:00:00 | |
| OM5KV | 2026-09-03 18:04:22 | 44.45007 | 20.86396 | 108° | 47km/h | 16862m | 5.7m/s | -56.3°C | 1.0% | 0hPa | 0V | 00:00:00 | 00:00:00 | 00:00:00 | |
| OM5KV | 2026-09-03 18:04:19 | 44.45016 | 20.86348 | 104° | 42km/h | 16846m | 5.6m/s | -56.4°C | 1.0% | 0hPa | 0V | 00:00:00 | 00:00:00 | 00:00:00 | |
| OM5KV | 2026-09-03 18:04:13 | 44.45038 | 20.86268 | 123° | 51km/h | 16814m | 5.6m/s | -56.5°C | 1.1% | 0hPa | 0V | 00:00:00 | 00:00:00 | 00:00:00 | |
| OM5KV | 2026-09-03 18:04:08 | 44.45062 | 20.86189 | 104° | 35km/h | 16788m | 5.3m/s | -56.4°C | 1.1% | 0hPa | 0V | 00:00:00 | 00:00:00 | 00:00:00 | |
| OM5KV | 2026-09-03 18:04:07 | 44.45064 | 20.86177 | 103° | 33km/h | 16783m | 4.9m/s | -56.4°C | 1.1% | 0hPa | 0V | 00:00:00 | 00:00:00 | 00:00:00 | |
| OM5KV | 2026-09-03 18:03:51 | 44.45151 | 20.85941 | 121° | 57km/h | 16699m | 5.8m/s | -56.1°C | 1.0% | 0hPa | 0V | 00:00:00 | 00:00:00 | 00:00:00 | |
| LZ4TU-5 | 2026-09-03 18:03:37 | 44.45232 | 20.85696 | 119° | 57km/h | 16625m | 6.1m/s | -56.7°C | 1.1% | 0hPa | 0V | 00:00:00 | 00:00:00 | 00:00:00 | |
| LZ4TU-5 | 2026-09-03 18:03:32 | 44.45262 | 20.85606 | 116° | 58km/h | 16599m | 6.0m/s | -56.9°C | 1.2% | 0hPa | 0V | 00:00:00 | 00:00:00 | 00:00:00 | |
| OM5KV | 2026-09-03 18:03:28 | 44.45290 | 20.85532 | 116° | 55km/h | 16577m | 5.3m/s | -56.9°C | 1.2% | 0hPa | 0V | 00:00:00 | 00:00:00 | 00:00:00 | |
| OM5KV | 2026-09-03 18:03:14 | 44.45338 | 20.85286 | 107° | 51km/h | 16503m | 5.3m/s | -56.9°C | 1.3% | 0hPa | 0V | 00:00:00 | 00:00:00 | 00:00:00 | |
| OM5KV | 2026-09-03 18:03:07 | 44.45348 | 20.85157 | 98° | 55km/h | 16467m | 6.2m/s | -56.6°C | 1.3% | 0hPa | 0V | 00:00:00 | 00:00:00 | 00:00:00 | |
| LZ4TU-5 | 2026-09-03 18:02:59 | 44.45367 | 20.85010 | 94° | 47km/h | 16424m | 5.6m/s | -56.7°C | 1.3% | 0hPa | 0V | 00:00:00 | 00:00:00 | 00:00:00 | |
| OM5KV | 2026-09-03 18:02:56 | 44.45369 | 20.84956 | 92° | 55km/h | 16407m | 5.2m/s | -56.9°C | 1.4% | 0hPa | 0V | 00:00:00 | 00:00:00 | 00:00:00 | |
| LZ4TU-5 | 2026-09-03 18:02:54 | 44.45370 | 20.84916 | 97° | 55km/h | 16397m | 5.8m/s | -56.9°C | 1.4% | 0hPa | 0V | 00:00:00 | 00:00:00 | 00:00:00 | |
| OM5KV | 2026-09-03 18:02:50 | 44.45377 | 20.84842 | 102° | 49km/h | 16378m | 4.7m/s | -57.1°C | 1.5% | 0hPa | 0V | 00:00:00 | 00:00:00 | 00:00:00 | |
| OM5KV | 2026-09-03 18:02:49 | 44.45380 | 20.84825 | 106° | 49km/h | 16373m | 5.7m/s | -57.1°C | 1.5% | 0hPa | 0V | 00:00:00 | 00:00:00 | 00:00:00 | |
| OM5KV | 2026-09-03 18:02:48 | 44.45383 | 20.84808 | 106° | 53km/h | 16368m | 4.1m/s | -57.1°C | 1.5% | 0hPa | 0V | 00:00:00 | 00:00:00 | 00:00:00 | |
| OM5KV | 2026-09-03 18:02:45 | 44.45390 | 20.84750 | 95° | 57km/h | 16353m | 5.0m/s | -57.2°C | 1.6% | 0hPa | 0V | 00:00:00 | 00:00:00 | 00:00:00 | |
| OM5KV | 2026-09-03 18:02:43 | 44.45392 | 20.84712 | 91° | 49km/h | 16343m | 4.7m/s | -57.2°C | 1.6% | 0hPa | 0V | 00:00:00 | 00:00:00 | 00:00:00 | |
| OM5KV | 2026-09-03 18:02:38 | 44.45390 | 20.84633 | 97° | 42km/h | 16317m | 5.6m/s | -57.3°C | 1.7% | 0hPa | 0V | 00:00:00 | 00:00:00 | 00:00:00 | |
| OM5KV | 2026-09-03 18:02:33 | 44.45391 | 20.84556 | 89° | 42km/h | 16290m | 4.2m/s | -57.2°C | 1.7% | 0hPa | 0V | 00:00:00 | 00:00:00 | 00:00:00 | |
| OM5KV | 2026-09-03 18:02:32 | 44.45390 | 20.84541 | 82° | 44km/h | 16285m | 6.0m/s | -57.2°C | 1.7% | 0hPa | 0V | 00:00:00 | 00:00:00 | 00:00:00 | |
| OM5KV | 2026-09-03 18:02:26 | 44.45375 | 20.84451 | 81° | 40km/h | 16255m | 5.3m/s | -57.0°C | 1.7% | 0hPa | 0V | 00:00:00 | 00:00:00 | 00:00:00 | |
| OM5KV | 2026-09-03 18:02:25 | 44.45374 | 20.84437 | 82° | 40km/h | 16250m | 4.7m/s | -57.0°C | 1.7% | 0hPa | 0V | 00:00:00 | 00:00:00 | 00:00:00 | |
| OM5KV | 2026-09-03 18:02:22 | 44.45375 | 20.84398 | 95° | 37km/h | 16233m | 5.4m/s | -56.9°C | 1.7% | 0hPa | 0V | 00:00:00 | 00:00:00 | 00:00:00 | |
| OM5KV | 2026-09-03 18:02:21 | 44.45375 | 20.84385 | 89° | 38km/h | 16228m | 6.1m/s | -56.8°C | 1.7% | 0hPa | 0V | 00:00:00 | 00:00:00 | 00:00:00 | |
| OM5KV | 2026-09-03 18:02:18 | 44.45370 | 20.84342 | 82° | 40km/h | 16211m | 6.1m/s | -56.8°C | 1.7% | 0hPa | 0V | 00:00:00 | 00:00:00 | 00:00:00 | |
| OM5KV | 2026-09-03 18:02:15 | 44.45368 | 20.84304 | 90° | 35km/h | 16194m | 4.8m/s | -56.8°C | 1.7% | 0hPa | 0V | 00:00:00 | 00:00:00 | 00:00:00 | |
| LZ4TU-5 | 2026-09-03 18:02:09 | 44.45375 | 20.84229 | 87° | 42km/h | 16163m | 4.5m/s | -56.8°C | 1.8% | 0hPa | 0V | 00:00:00 | 00:00:00 | 00:00:00 | |
| OM5KV | 2026-09-03 18:02:07 | 44.45375 | 20.84199 | 95° | 44km/h | 16153m | 5.0m/s | -56.7°C | 1.8% | 0hPa | 0V | 00:00:00 | 00:00:00 | 00:00:00 | |
| LZ4TU-5 | 2026-09-03 18:02:04 | 44.45381 | 20.84154 | 115° | 42km/h | 16138m | 5.8m/s | -56.7°C | 1.8% | 0hPa | 0V | 00:00:00 | 00:00:00 | 00:00:00 | |
| OM5KV | 2026-09-03 18:02:01 | 44.45395 | 20.84119 | 120° | 33km/h | 16123m | 3.9m/s | -56.7°C | 1.8% | 0hPa | 0V | 00:00:00 | 00:00:00 | 00:00:00 | |
| OM5KV | 2026-09-03 18:01:56 | 44.45403 | 20.84052 | 101° | 40km/h | 16100m | 4.8m/s | -57.0°C | 1.9% | 0hPa | 0V | 00:00:00 | 00:00:00 | 00:00:00 | |
| OM5KV | 2026-09-03 18:01:51 | 44.45420 | 20.83993 | 117° | 26km/h | 16075m | 4.8m/s | -56.9°C | 1.9% | 0hPa | 0V | 00:00:00 | 00:00:00 | 00:00:00 | |
| OM5KV | 2026-09-03 18:01:46 | 44.45429 | 20.83944 | 118° | 37km/h | 16050m | 4.7m/s | -56.8°C | 1.9% | 0hPa | 0V | 00:00:00 | 00:00:00 | 00:00:00 | |
| OM5KV | 2026-09-03 18:01:43 | 44.45445 | 20.83906 | 122° | 42km/h | 16034m | 5.6m/s | -56.7°C | 1.9% | 0hPa | 0V | 00:00:00 | 00:00:00 | 00:00:00 | |
| OM5KV | 2026-09-03 18:01:42 | 44.45450 | 20.83894 | 120° | 37km/h | 16029m | 5.7m/s | -56.7°C | 1.9% | 0hPa | 0V | 00:00:00 | 00:00:00 | 00:00:00 | |
| OM5KV | 2026-09-03 18:01:33 | 44.45495 | 20.83789 | 124° | 51km/h | 15982m | 3.6m/s | -56.5°C | 1.8% | 0hPa | 0V | 00:00:00 | 00:00:00 | 00:00:00 | |
| LZ4TU-5 | 2026-09-03 18:01:32 | 44.45502 | 20.83774 | 124° | 47km/h | 15978m | 4.9m/s | -56.5°C | 1.8% | 0hPa | 0V | 00:00:00 | 00:00:00 | 00:00:00 | |
| OM5KV | 2026-09-03 18:01:28 | 44.45525 | 20.83728 | 130° | 40km/h | 15958m | 4.5m/s | -56.4°C | 1.8% | 0hPa | 0V | 00:00:00 | 00:00:00 | 00:00:00 | |
| LZ4TU-5 | 2026-09-03 18:01:27 | 44.45532 | 20.83717 | 134° | 42km/h | 15953m | 5.7m/s | -56.4°C | 1.8% | 0hPa | 0V | 00:00:00 | 00:00:00 | 00:00:00 | |
| OM5KV | 2026-09-03 18:01:25 | 44.45547 | 20.83693 | 131° | 49km/h | 15942m | 5.8m/s | -56.4°C | 1.7% | 0hPa | 0V | 00:00:00 | 00:00:00 | 00:00:00 | |
| OM5KV | 2026-09-03 18:01:20 | 44.45582 | 20.83624 | 122° | 42km/h | 15917m | 5.5m/s | -56.5°C | 1.7% | 0hPa | 0V | 00:00:00 | 00:00:00 | 00:00:00 | |
| OM5KV | 2026-09-03 18:01:17 | 44.45600 | 20.83584 | 129° | 44km/h | 15902m | 4.5m/s | -56.7°C | 1.7% | 0hPa | 0V | 00:00:00 | 00:00:00 | 00:00:00 | |
| OM5KV | 2026-09-03 18:01:13 | 44.45631 | 20.83534 | 131° | 55km/h | 15882m | 5.0m/s | -57.0°C | 1.7% | 0hPa | 0V | 00:00:00 | 00:00:00 | 00:00:00 | |
| OM5KV | 2026-09-03 18:01:10 | 44.45658 | 20.83490 | 130° | 57km/h | 15866m | 4.5m/s | -57.4°C | 1.8% | 0hPa | 0V | 00:00:00 | 00:00:00 | 00:00:00 | |
| OM5KV | 2026-09-03 18:01:07 | 44.45687 | 20.83443 | 134° | 62km/h | 15851m | 4.3m/s | -57.7°C | 1.9% | 0hPa | 0V | 00:00:00 | 00:00:00 | 00:00:00 | |
| OM5KV | 2026-09-03 18:01:04 | 44.45719 | 20.83397 | 133° | 62km/h | 15838m | 3.9m/s | -57.6°C | 1.8% | 0hPa | 0V | 00:00:00 | 00:00:00 | 00:00:00 | |
| OM5KV | 2026-09-03 18:01:01 | 44.45748 | 20.83343 | 126° | 64km/h | 15825m | 4.6m/s | -57.6°C | 1.8% | 0hPa | 0V | 00:00:00 | 00:00:00 | 00:00:00 | |
| OM5KV | 2026-09-03 18:00:55 | 44.45801 | 20.83238 | 132° | 57km/h | 15797m | 5.3m/s | -57.9°C | 1.8% | 0hPa | 0V | 00:00:00 | 00:00:00 | 00:00:00 | |
| OM5KV | 2026-09-03 18:00:53 | 44.45821 | 20.83206 | 131° | 60km/h | 15787m | 4.7m/s | -58.0°C | 1.9% | 0hPa | 0V | 00:00:00 | 00:00:00 | 00:00:00 | |
| OM5KV | 2026-09-03 18:00:50 | 44.45852 | 20.83157 | 132° | 64km/h | 15774m | 3.8m/s | -58.2°C | 1.9% | 0hPa | 0V | 00:00:00 | 00:00:00 | 00:00:00 | |
| OM5KV | 2026-09-03 18:00:48 | 44.45872 | 20.83119 | 122° | 66km/h | 15765m | 3.7m/s | -58.5°C | 2.0% | 0hPa | 0V | 00:00:00 | 00:00:00 | 00:00:00 | |
| OM5KV | 2026-09-03 18:00:47 | 44.45880 | 20.83099 | 121° | 66km/h | 15761m | 4.6m/s | -58.6°C | 2.0% | 0hPa | 0V | 00:00:00 | 00:00:00 | 00:00:00 | |
| OM5KV | 2026-09-03 18:00:42 | 44.45917 | 20.83009 | 121° | 55km/h | 15738m | 5.5m/s | -58.6°C | 2.0% | 0hPa | 0V | 00:00:00 | 00:00:00 | 00:00:00 | |
| LZ4TU-5 | 2026-09-03 18:00:40 | 44.45932 | 20.82975 | 121° | 57km/h | 15730m | 4.3m/s | -58.5°C | 2.0% | 0hPa | 0V | 00:00:00 | 00:00:00 | 00:00:00 | |
| OM5KV | 2026-09-03 18:00:36 | 44.45953 | 20.82897 | 110° | 53km/h | 15712m | 5.9m/s | -58.5°C | 2.0% | 0hPa | 0V | 00:00:00 | 00:00:00 | 00:00:00 | |
| LZ4TU-5 | 2026-09-03 18:00:35 | 44.45957 | 20.82880 | 113° | 53km/h | 15706m | 4.8m/s | -58.5°C | 2.0% | 0hPa | 0V | 00:00:00 | 00:00:00 | 00:00:00 | |
| OM5KV | 2026-09-03 18:00:32 | 44.45975 | 20.82827 | 115° | 60km/h | 15692m | 4.7m/s | -58.4°C | 2.0% | 0hPa | 0V | 00:00:00 | 00:00:00 | 00:00:00 | |
| OM5KV | 2026-09-03 18:00:31 | 44.45981 | 20.82808 | 114° | 58km/h | 15687m | 4.1m/s | -58.4°C | 2.0% | 0hPa | 0V | 00:00:00 | 00:00:00 | 00:00:00 | |
| OM5KV | 2026-09-03 18:00:29 | 44.45992 | 20.82770 | 111° | 57km/h | 15678m | 4.3m/s | -58.3°C | 1.9% | 0hPa | 0V | 00:00:00 | 00:00:00 | 00:00:00 | |
| OM5KV | 2026-09-03 18:00:26 | 44.46006 | 20.82714 | 111° | 49km/h | 15664m | 5.5m/s | -58.4°C | 2.0% | 0hPa | 0V | 00:00:00 | 00:00:00 | 00:00:00 | |
| OM5KV | 2026-09-03 18:00:15 | 44.46056 | 20.82512 | 115° | 46km/h | 15603m | 5.4m/s | -58.6°C | 2.0% | 0hPa | 0V | 00:00:00 | 00:00:00 | 00:00:00 | |
| OM5KV | 2026-09-03 18:00:11 | 44.46071 | 20.82468 | 117° | 44km/h | 15588m | 5.0m/s | -58.7°C | 2.0% | 0hPa | 0V | 00:00:00 | 00:00:00 | 00:00:00 | |
| OM5KV | 2026-09-03 18:00:08 | 44.46080 | 20.82422 | 96° | 49km/h | 15573m | 4.9m/s | -58.7°C | 2.1% | 0hPa | 0V | 00:00:00 | 00:00:00 | 00:00:00 | |
| OM5KV | 2026-09-03 18:00:05 | 44.46080 | 20.82371 | 95° | 49km/h | 15558m | 4.4m/s | -58.6°C | 2.1% | 0hPa | 0V | 00:00:00 | 00:00:00 | 00:00:00 | |
| LZ4TU-5 | 2026-09-03 18:00:01 | 44.46092 | 20.82309 | 118° | 42km/h | 15540m | 4.2m/s | -58.7°C | 2.1% | 0hPa | 0V | 00:00:00 | 00:00:00 | 00:00:00 | |
| OM5KV | 2026-09-03 18:00:00 | 44.46097 | 20.82296 | 119° | 40km/h | 15537m | 3.6m/s | -58.7°C | 2.2% | 0hPa | 0V | 00:00:00 | 00:00:00 | 00:00:00 | |
| LZ4TU-5 | 2026-09-03 17:59:56 | 44.46111 | 20.82237 | 98° | 47km/h | 15516m | 5.2m/s | -58.6°C | 2.2% | 0hPa | 0V | 00:00:00 | 00:00:00 | 00:00:00 | |
| OM5KV | 2026-09-03 17:59:52 | 44.46115 | 20.82169 | 100° | 40km/h | 15494m | 5.6m/s | -58.5°C | 2.3% | 0hPa | 0V | 00:00:00 | 00:00:00 | 00:00:00 | |
| OM5KV | 2026-09-03 17:59:47 | 44.46129 | 20.82112 | 115° | 40km/h | 15466m | 5.2m/s | -58.3°C | 2.3% | 0hPa | 0V | 00:00:00 | 00:00:00 | 00:00:00 | |
| OM5KV | 2026-09-03 17:59:46 | 44.46132 | 20.82099 | 114° | 38km/h | 15461m | 6.0m/s | -58.3°C | 2.3% | 0hPa | 0V | 00:00:00 | 00:00:00 | 00:00:00 | |
| OM5KV | 2026-09-03 17:59:41 | 44.46151 | 20.82029 | 111° | 40km/h | 15433m | 6.0m/s | -58.1°C | 2.3% | 0hPa | 0V | 00:00:00 | 00:00:00 | 00:00:00 | |
| OM5KV | 2026-09-03 17:59:36 | 44.46169 | 20.81971 | 118° | 40km/h | 15404m | 5.9m/s | -57.9°C | 2.3% | 0hPa | 0V | 00:00:00 | 00:00:00 | 00:00:00 | |
| OM5KV | 2026-09-03 17:59:35 | 44.46173 | 20.81958 | 118° | 38km/h | 15398m | 5.7m/s | -57.9°C | 2.3% | 0hPa | 0V | 00:00:00 | 00:00:00 | 00:00:00 | |
| OM5KV | 2026-09-03 17:59:30 | 44.46198 | 20.81888 | 114° | 47km/h | 15373m | 5.8m/s | -57.8°C | 2.3% | 0hPa | 0V | 00:00:00 | 00:00:00 | 00:00:00 | |
| OM5KV | 2026-09-03 17:59:29 | 44.46203 | 20.81875 | 126° | 37km/h | 15366m | 5.9m/s | -57.7°C | 2.3% | 0hPa | 0V | 00:00:00 | 00:00:00 | 00:00:00 | |
| OM5KV | 2026-09-03 17:59:25 | 44.46228 | 20.81832 | 134° | 44km/h | 15344m | 4.9m/s | -57.6°C | 2.4% | 0hPa | 0V | 00:00:00 | 00:00:00 | 00:00:00 | |
| OM5KV | 2026-09-03 17:59:22 | 44.46246 | 20.81794 | 116° | 47km/h | 15328m | 6.0m/s | -57.5°C | 2.4% | 0hPa | 0V | 00:00:00 | 00:00:00 | 00:00:00 | |
| OM5KV | 2026-09-03 17:59:19 | 44.46261 | 20.81747 | 115° | 42km/h | 15313m | 5.7m/s | -57.5°C | 2.4% | 0hPa | 0V | 00:00:00 | 00:00:00 | 00:00:00 | |
| OM5KV | 2026-09-03 17:59:16 | 44.46277 | 20.81714 | 132° | 40km/h | 15298m | 4.6m/s | -57.5°C | 2.5% | 0hPa | 0V | 00:00:00 | 00:00:00 | 00:00:00 | |
| OM5KV | 2026-09-03 17:59:13 | 44.46295 | 20.81680 | 112° | 42km/h | 15283m | 5.8m/s | -57.5°C | 2.5% | 0hPa | 0V | 00:00:00 | 00:00:00 | 00:00:00 | |
| LZ4TU-5 | 2026-09-03 17:59:11 | 44.46303 | 20.81649 | 108° | 49km/h | 15272m | 5.4m/s | -57.5°C | 2.6% | 0hPa | 0V | 00:00:00 | 00:00:00 | 00:00:00 | |
| OM5KV | 2026-09-03 17:59:08 | 44.46313 | 20.81600 | 113° | 44km/h | 15256m | 5.2m/s | -57.4°C | 2.6% | 0hPa | 0V | 00:00:00 | 00:00:00 | 00:00:00 | |
| LZ4TU-5 | 2026-09-03 17:59:06 | 44.46322 | 20.81573 | 117° | 42km/h | 15245m | 4.7m/s | -57.3°C | 2.6% | 0hPa | 0V | 00:00:00 | 00:00:00 | 00:00:00 | |
| OM5KV | 2026-09-03 17:59:03 | 44.46334 | 20.81534 | 107° | 42km/h | 15230m | 4.7m/s | -57.2°C | 2.6% | 0hPa | 0V | 00:00:00 | 00:00:00 | 00:00:00 | |
| OM5KV | 2026-09-03 17:59:01 | 44.46340 | 20.81503 | 109° | 49km/h | 15219m | 4.9m/s | -57.1°C | 2.6% | 0hPa | 0V | 00:00:00 | 00:00:00 | 00:00:00 | |
| OM5KV | 2026-09-03 17:58:53 | 44.46365 | 20.81390 | 98° | 40km/h | 15179m | 5.1m/s | -56.9°C | 2.7% | 0hPa | 0V | 00:00:00 | 00:00:00 | 00:00:00 | |
| OM5KV | 2026-09-03 17:58:49 | 44.46372 | 20.81329 | 97° | 46km/h | 15160m | 4.7m/s | -56.8°C | 2.7% | 0hPa | 0V | 00:00:00 | 00:00:00 | 00:00:00 | |
| OM5KV | 2026-09-03 17:58:46 | 44.46376 | 20.81280 | 100° | 47km/h | 15145m | 4.8m/s | -56.7°C | 2.8% | 0hPa | 0V | 00:00:00 | 00:00:00 | 00:00:00 | |
| OM5KV | 2026-09-03 17:58:43 | 44.46381 | 20.81236 | 103° | 38km/h | 15130m | 5.1m/s | -56.6°C | 2.8% | 0hPa | 0V | 00:00:00 | 00:00:00 | 00:00:00 | |
| OM5KV | 2026-09-03 17:58:36 | 44.46397 | 20.81127 | 99° | 51km/h | 15095m | 5.8m/s | -56.3°C | 2.8% | 0hPa | 0V | 00:00:00 | 00:00:00 | 00:00:00 | |
| OM5KV | 2026-09-03 17:58:33 | 44.46404 | 20.81081 | 115° | 33km/h | 15079m | 5.3m/s | -56.2°C | 2.9% | 0hPa | 0V | 00:00:00 | 00:00:00 | 00:00:00 | |
| OM5KV | 2026-09-03 17:58:32 | 44.46407 | 20.81071 | 115° | 31km/h | 15074m | 4.9m/s | -56.2°C | 2.9% | 0hPa | 0V | 00:00:00 | 00:00:00 | 00:00:00 | |
| LZ4TU-5 | 2026-09-03 17:58:28 | 44.46419 | 20.81027 | 111° | 42km/h | 15054m | 5.8m/s | -56.0°C | 2.9% | 0hPa | 0V | 00:00:00 | 00:00:00 | 00:00:00 | |
| OM5KV | 2026-09-03 17:58:27 | 44.46423 | 20.81012 | 110° | 47km/h | 15048m | 5.5m/s | -56.0°C | 2.9% | 0hPa | 0V | 00:00:00 | 00:00:00 | 00:00:00 | |
| OM5KV | 2026-09-03 17:58:25 | 44.46429 | 20.80979 | 102° | 47km/h | 15036m | 5.2m/s | -56.0°C | 2.9% | 0hPa | 0V | 00:00:00 | 00:00:00 | 00:00:00 | |
| OM5KV | 2026-09-03 17:58:22 | 44.46437 | 20.80933 | 108° | 38km/h | 15021m | 5.2m/s | -55.9°C | 3.0% | 0hPa | 0V | 00:00:00 | 00:00:00 | 00:00:00 | |
| OM5KV | 2026-09-03 17:58:14 | 44.46465 | 20.80827 | 106° | 51km/h | 14981m | 4.7m/s | -55.8°C | 3.1% | 0hPa | 0V | 00:00:00 | 00:00:00 | 00:00:00 | |
| OM5KV | 2026-09-03 17:58:10 | 44.46479 | 20.80762 | 114° | 46km/h | 14960m | 4.9m/s | -55.7°C | 3.1% | 0hPa | 0V | 00:00:00 | 00:00:00 | 00:00:00 | |
| OM5KV | 2026-09-03 17:58:01 | 44.46518 | 20.80645 | 122° | 46km/h | 14914m | 6.1m/s | -55.6°C | 3.2% | 0hPa | 0V | 00:00:00 | 00:00:00 | 00:00:00 | |
| OM5KV | 2026-09-03 17:57:52 | 44.46569 | 20.80530 | 123° | 46km/h | 14867m | 4.3m/s | -55.6°C | 3.3% | 0hPa | 0V | 00:00:00 | 00:00:00 | 00:00:00 | |
| OM5KV | 2026-09-03 17:57:44 | 44.46618 | 20.80417 | 129° | 44km/h | 14830m | 4.7m/s | -55.6°C | 3.5% | 0hPa | 0V | 00:00:00 | 00:00:00 | 00:00:00 | |
| LZ4TU-5 | 2026-09-03 17:57:42 | 44.46630 | 20.80395 | 127° | 38km/h | 14820m | 4.7m/s | -55.6°C | 3.5% | 0hPa | 0V | 00:00:00 | 00:00:00 | 00:00:00 | |
| OM5KV | 2026-09-03 17:57:41 | 44.46636 | 20.80384 | 129° | 40km/h | 14816m | 5.3m/s | -55.6°C | 3.5% | 0hPa | 0V | 00:00:00 | 00:00:00 | 00:00:00 | |
| LZ4TU-5 | 2026-09-03 17:57:37 | 44.46661 | 20.80334 | 121° | 40km/h | 14796m | 4.9m/s | -55.6°C | 3.5% | 0hPa | 0V | 00:00:00 | 00:00:00 | 00:00:00 | |
| OM5KV | 2026-09-03 17:57:33 | 44.46684 | 20.80280 | 122° | 46km/h | 14776m | 5.3m/s | -55.6°C | 3.6% | 0hPa | 0V | 00:00:00 | 00:00:00 | 00:00:00 | |
| OM5KV | 2026-09-03 17:57:26 | 44.46724 | 20.80184 | 110° | 38km/h | 14742m | 4.9m/s | -55.5°C | 3.7% | 0hPa | 0V | 00:00:00 | 00:00:00 | 00:00:00 | |
| OM5KV | 2026-09-03 17:57:24 | 44.46733 | 20.80157 | 122° | 46km/h | 14732m | 5.6m/s | -55.4°C | 3.7% | 0hPa | 0V | 00:00:00 | 00:00:00 | 00:00:00 | |
| OM5KV | 2026-09-03 17:57:20 | 44.46764 | 20.80103 | 133° | 53km/h | 14708m | 6.7m/s | -55.3°C | 3.7% | 0hPa | 0V | 00:00:00 | 00:00:00 | 00:00:00 | |
| OM5KV | 2026-09-03 17:57:18 | 44.46781 | 20.80075 | 130° | 53km/h | 14698m | 4.8m/s | -55.3°C | 3.8% | 0hPa | 0V | 00:00:00 | 00:00:00 | 00:00:00 | |
| OM5KV | 2026-09-03 17:57:14 | 44.46807 | 20.80021 | 129° | 49km/h | 14676m | 6.1m/s | -55.3°C | 3.8% | 0hPa | 0V | 00:00:00 | 00:00:00 | 00:00:00 | |
| OM5KV | 2026-09-03 17:57:13 | 44.46815 | 20.80007 | 131° | 55km/h | 14671m | 4.7m/s | -55.3°C | 3.8% | 0hPa | 0V | 00:00:00 | 00:00:00 | 00:00:00 | |
| OM5KV | 2026-09-03 17:57:07 | 44.46867 | 20.79906 | 121° | 58km/h | 14642m | 5.1m/s | -55.2°C | 3.9% | 0hPa | 0V | 00:00:00 | 00:00:00 | 00:00:00 | |
| OM5KV | 2026-09-03 17:57:06 | 44.46873 | 20.79889 | 122° | 51km/h | 14637m | 4.5m/s | -55.2°C | 3.9% | 0hPa | 0V | 00:00:00 | 00:00:00 | 00:00:00 | |
| LZ4TU-5 | 2026-09-03 17:57:03 | 44.46896 | 20.79849 | 136° | 51km/h | 14624m | 3.8m/s | -55.2°C | 3.9% | 0hPa | 0V | 00:00:00 | 00:00:00 | 00:00:00 | |
| OM5KV | 2026-09-03 17:57:02 | 44.46906 | 20.79836 | 136° | 51km/h | 14619m | 4.6m/s | -55.1°C | 3.9% | 0hPa | 0V | 00:00:00 | 00:00:00 | 00:00:00 | |
| OM5KV | 2026-09-03 17:57:00 | 44.46923 | 20.79808 | 131° | 57km/h | 14611m | 3.8m/s | -55.1°C | 3.9% | 0hPa | 0V | 00:00:00 | 00:00:00 | 00:00:00 | |
| LZ4TU-5 | 2026-09-03 17:56:58 | 44.46942 | 20.79776 | 130° | 60km/h | 14601m | 4.3m/s | -55.1°C | 4.0% | 0hPa | 0V | 00:00:00 | 00:00:00 | 00:00:00 | |
| OM5KV | 2026-09-03 17:56:43 | 44.47072 | 20.79558 | 127° | 55km/h | 14530m | 3.9m/s | -54.8°C | 4.0% | 0hPa | 0V | 00:00:00 | 00:00:00 | 00:00:00 | |
| OM5KV | 2026-09-03 17:56:42 | 44.47080 | 20.79542 | 131° | 55km/h | 14525m | 5.4m/s | -54.8°C | 4.0% | 0hPa | 0V | 00:00:00 | 00:00:00 | 00:00:00 | |
| OM5KV | 2026-09-03 17:56:38 | 44.47119 | 20.79484 | 131° | 57km/h | 14507m | 3.0m/s | -54.7°C | 4.0% | 0hPa | 0V | 00:00:00 | 00:00:00 | 00:00:00 | |
| OM5KV | 2026-09-03 17:56:37 | 44.47129 | 20.79469 | 132° | 57km/h | 14504m | 4.0m/s | -54.7°C | 4.0% | 0hPa | 0V | 00:00:00 | 00:00:00 | 00:00:00 | |
| OM5KV | 2026-09-03 17:56:33 | 44.47165 | 20.79412 | 129° | 53km/h | 14485m | 4.4m/s | -54.6°C | 4.0% | 0hPa | 0V | 00:00:00 | 00:00:00 | 00:00:00 | |
| OM5KV | 2026-09-03 17:56:32 | 44.47173 | 20.79397 | 130° | 55km/h | 14480m | 5.3m/s | -54.6°C | 4.0% | 0hPa | 0V | 00:00:00 | 00:00:00 | 00:00:00 | |
| OM5KV | 2026-09-03 17:56:25 | 44.47243 | 20.79284 | 135° | 58km/h | 14450m | 4.9m/s | -54.7°C | 4.0% | 0hPa | 0V | 00:00:00 | 00:00:00 | 00:00:00 | |
| OM5KV | 2026-09-03 17:56:20 | 44.47289 | 20.79206 | 128° | 68km/h | 14428m | 4.6m/s | -54.7°C | 4.0% | 0hPa | 0V | 00:00:00 | 00:00:00 | 00:00:00 | |
| LZ4TU-5 | 2026-09-03 17:56:11 | 44.47391 | 20.79037 | 131° | 58km/h | 14393m | 4.3m/s | -54.8°C | 4.0% | 0hPa | 0V | 00:00:00 | 00:00:00 | 00:00:00 | |
| OM5KV | 2026-09-03 17:56:09 | 44.47412 | 20.79004 | 133° | 68km/h | 14385m | 4.0m/s | -54.9°C | 4.0% | 0hPa | 0V | 00:00:00 | 00:00:00 | 00:00:00 | |
| LZ4TU-5 | 2026-09-03 17:56:06 | 44.47448 | 20.78947 | 136° | 75km/h | 14373m | 5.3m/s | -55.1°C | 4.1% | 0hPa | 0V | 00:00:00 | 00:00:00 | 00:00:00 | |
| OM5KV | 2026-09-03 17:55:53 | 44.47602 | 20.78689 | 127° | 82km/h | 14318m | 4.0m/s | -55.3°C | 4.1% | 0hPa | 0V | 00:00:00 | 00:00:00 | 00:00:00 | |
| OM5KV | 2026-09-03 17:55:51 | 44.47624 | 20.78644 | 126° | 73km/h | 14311m | 4.6m/s | -55.4°C | 4.1% | 0hPa | 0V | 00:00:00 | 00:00:00 | 00:00:00 | |
| OM5KV | 2026-09-03 17:55:42 | 44.47723 | 20.78441 | 121° | 88km/h | 14277m | 3.3m/s | -55.4°C | 4.1% | 0hPa | 0V | 00:00:00 | 00:00:00 | 00:00:00 | |
| OM5KV | 2026-09-03 17:55:37 | 44.47771 | 20.78324 | 120° | 68km/h | 14257m | 3.5m/s | -55.5°C | 4.1% | 0hPa | 0V | 00:00:00 | 00:00:00 | 00:00:00 | |
| OM5KV | 2026-09-03 17:55:35 | 44.47790 | 20.78280 | 126° | 80km/h | 14249m | 4.1m/s | -55.4°C | 4.1% | 0hPa | 0V | 00:00:00 | 00:00:00 | 00:00:00 | |
| LZ4TU-5 | 2026-09-03 17:55:33 | 44.47814 | 20.78232 | 123° | 84km/h | 14241m | 4.0m/s | -55.4°C | 4.1% | 0hPa | 0V | 00:00:00 | 00:00:00 | 00:00:00 | |
| LZ4TU-5 | 2026-09-03 17:55:28 | 44.47865 | 20.78114 | 117° | 71km/h | 14222m | 4.2m/s | -55.5°C | 4.1% | 0hPa | 0V | 00:00:00 | 00:00:00 | 00:00:00 | |
| LZ4TU-5 | 2026-09-03 17:54:41 | 44.48186 | 20.77004 | 107° | 68km/h | 14022m | 4.5m/s | -55.7°C | 4.4% | 0hPa | 0V | 00:00:00 | 00:00:00 | 00:00:00 | |
| LZ4TU-5 | 2026-09-03 17:54:36 | 44.48212 | 20.76907 | 116° | 55km/h | 13999m | 4.4m/s | -55.6°C | 4.4% | 0hPa | 0V | 00:00:00 | 00:00:00 | 00:00:00 | |
| LZ4TU-5 | 2026-09-03 17:53:59 | 44.48395 | 20.76172 | 90° | 71km/h | 13819m | 4.2m/s | -54.8°C | 4.6% | 0hPa | 0V | 00:00:00 | 00:00:00 | 00:00:00 | |
| LZ4TU-5 | 2026-09-03 17:53:14 | 44.48733 | 20.75353 | 126° | 47km/h | 13549m | 6.2m/s | -52.4°C | 5.5% | 0hPa | 0V | 00:00:00 | 00:00:00 | 00:00:00 | |
| LZ4TU-5 | 2026-09-03 17:53:06 | 44.48800 | 20.75237 | 127° | 69km/h | 13501m | 6.9m/s | -52.2°C | 5.7% | 0hPa | 0V | 00:00:00 | 00:00:00 | 00:00:00 | |
| LZ4TU-5 | 2026-09-03 17:53:02 | 44.48846 | 20.75168 | 144° | 53km/h | 13481m | 5.2m/s | -52.1°C | 5.8% | 0hPa | 0V | 00:00:00 | 00:00:00 | 00:00:00 | |
| LZ4TU-5 | 2026-09-03 17:52:30 | 44.49238 | 20.74627 | 134° | 55km/h | 13310m | 4.6m/s | -51.8°C | 6.6% | 0hPa | 0V | 00:00:00 | 00:00:00 | 00:00:00 | |
| LZ4TU-5 | 2026-09-03 17:52:26 | 44.49286 | 20.74553 | 132° | 82km/h | 13291m | 5.1m/s | -51.8°C | 6.7% | 0hPa | 0V | 00:00:00 | 00:00:00 | 00:00:00 | |
| LZ4TU-5 | 2026-09-03 17:52:21 | 44.49353 | 20.74441 | 131° | 73km/h | 13266m | 5.7m/s | -51.8°C | 6.9% | 0hPa | 0V | 00:00:00 | 00:00:00 | 00:00:00 | |
| LZ4TU-5 | 2026-09-03 17:51:29 | 44.49936 | 20.73151 | 117° | 91km/h | 13014m | 5.7m/s | -52.3°C | 9.2% | 0hPa | 0V | 00:00:00 | 00:00:00 | 00:00:00 | |
| LZ4TU-5 | 2026-09-03 17:51:24 | 44.49968 | 20.73008 | 109° | 71km/h | 12988m | 4.2m/s | -52.5°C | 9.5% | 0hPa | 0V | 00:00:00 | 00:00:00 | 00:00:00 | |
| LZ4TU-5 | 2026-09-03 17:50:50 | 44.50246 | 20.72090 | 109° | 80km/h | 12796m | 6.2m/s | -53.4°C | 11.0% | 0hPa | 0V | 00:00:00 | 00:00:00 | 00:00:00 | |
| LZ4TU-5 | 2026-09-03 17:50:46 | 44.50276 | 20.71985 | 112° | 77km/h | 12774m | 4.9m/s | -53.5°C | 11.0% | 0hPa | 0V | 00:00:00 | 00:00:00 | 00:00:00 | |
| LZ4TU-5 | 2026-09-03 17:50:01 | 44.50622 | 20.71055 | 130° | 62km/h | 12542m | 4.5m/s | -52.9°C | 13.7% | 0hPa | 0V | 00:00:00 | 00:00:00 | 00:00:00 | |
| LZ4TU-5 | 2026-09-03 17:49:56 | 44.50668 | 20.70984 | 118° | 60km/h | 12516m | 4.6m/s | -52.8°C | 14.3% | 0hPa | 0V | 00:00:00 | 00:00:00 | 00:00:00 | |
| LZ4TU-5 | 2026-09-03 17:49:23 | 44.51032 | 20.70306 | 129° | 82km/h | 12349m | 4.2m/s | -53.6°C | 18.8% | 0hPa | 0V | 00:00:00 | 00:00:00 | 00:00:00 | |
| LZ4TU-5 | 2026-09-03 17:49:18 | 44.51103 | 20.70214 | 143° | 60km/h | 12327m | 3.7m/s | -53.6°C | 19.6% | 0hPa | 0V | 00:00:00 | 00:00:00 | 00:00:00 | |
| LZ4TU-5 | 2026-09-03 17:48:31 | 44.51942 | 20.69225 | 143° | 111km/h | 12065m | 5.2m/s | -55.4°C | 29.0% | 0hPa | 0V | 00:00:00 | 00:00:00 | 00:00:00 | |
| LZ4TU-5 | 2026-09-03 17:48:26 | 44.52049 | 20.69092 | 137° | 122km/h | 12035m | 5.1m/s | -55.5°C | 29.9% | 0hPa | 0V | 00:00:00 | 00:00:00 | 00:00:00 | |
| LZ4TU-5 | 2026-09-03 17:47:52 | 44.52685 | 20.68343 | 146° | 88km/h | 11864m | 4.4m/s | -56.8°C | 36.0% | 0hPa | 0V | 00:00:00 | 00:00:00 | 00:00:00 | |
| LZ4TU-5 | 2026-09-03 17:47:47 | 44.52779 | 20.68246 | 147° | 99km/h | 11841m | 5.3m/s | -56.8°C | 36.6% | 0hPa | 0V | 00:00:00 | 00:00:00 | 00:00:00 | |
| LZ4TU-5 | 2026-09-03 17:47:01 | 44.53770 | 20.67425 | 153° | 97km/h | 11631m | 5.5m/s | -56.7°C | 41.6% | 0hPa | 0V | 00:00:00 | 00:00:00 | 00:00:00 | |
| LZ4TU-5 | 2026-09-03 17:46:56 | 44.53888 | 20.67352 | 161° | 104km/h | 11610m | 4.2m/s | -56.7°C | 0% | 0hPa | 0V | 00:00:00 | 00:00:00 | 00:00:00 | |
| LZ4TU-5 | 2026-09-03 17:45:40 | 44.55810 | 20.65928 | 149° | 117km/h | 11246m | 5.1m/s | -54.5°C | 52.4% | 0hPa | 0V | 00:00:00 | 00:00:00 | 00:00:00 | |
| LZ4TU-5 | 2026-09-03 17:45:35 | 44.55928 | 20.65817 | 143° | 111km/h | 11222m | 4.2m/s | -54.4°C | 53.3% | 0hPa | 0V | 00:00:00 | 00:00:00 | 00:00:00 | |
| LZ4TU-5 | 2026-09-03 17:44:23 | 44.57481 | 20.64394 | 150° | 89km/h | 10823m | 6.6m/s | -51.8°C | 58.8% | 0hPa | 0V | 00:00:00 | 00:00:00 | 00:00:00 | |
| LZ4TU-5 | 2026-09-03 17:44:18 | 44.57595 | 20.64322 | 154° | 106km/h | 10798m | 5.1m/s | -51.6°C | 59.3% | 0hPa | 0V | 00:00:00 | 00:00:00 | 00:00:00 | |
| LZ4TU-5 | 2026-09-03 17:43:04 | 44.59139 | 20.62955 | 147° | 104km/h | 10406m | 5.6m/s | -48.1°C | 54.3% | 0hPa | 0V | 00:00:00 | 00:00:00 | 00:00:00 | |
| LZ4TU-5 | 2026-09-03 17:42:59 | 44.59249 | 20.62842 | 153° | 95km/h | 10377m | 5.5m/s | -47.8°C | 53.6% | 0hPa | 0V | 00:00:00 | 00:00:00 | 00:00:00 | |
| LZ4TU-5 | 2026-09-03 17:41:43 | 44.60633 | 20.61555 | 151° | 84km/h | 9944m | 5.1m/s | -43.9°C | 46.4% | 0hPa | 0V | 00:00:00 | 00:00:00 | 00:00:00 | |
| LZ4TU-5 | 2026-09-03 17:41:38 | 44.60719 | 20.61469 | 143° | 80km/h | 9918m | 5.3m/s | -43.8°C | 46.1% | 0hPa | 0V | 00:00:00 | 00:00:00 | 00:00:00 | |
| LZ4TU-5 | 2026-09-03 17:40:25 | 44.62040 | 20.60051 | 145° | 88km/h | 9528m | 4.5m/s | -40.2°C | 39.5% | 0hPa | 0V | 00:00:00 | 00:00:00 | 00:00:00 | |
| LZ4TU-5 | 2026-09-03 17:40:20 | 44.62126 | 20.59947 | 135° | 93km/h | 9505m | 5.4m/s | -40.0°C | 39.7% | 0hPa | 0V | 00:00:00 | 00:00:00 | 00:00:00 | |
| LZ4TU-5 | 2026-09-03 17:39:01 | 44.63557 | 20.58343 | 154° | 100km/h | 9080m | 5.1m/s | -36.7°C | 37.5% | 0hPa | 0V | 00:00:00 | 00:00:00 | 00:00:00 | |
| LZ4TU-5 | 2026-09-03 17:38:56 | 44.63663 | 20.58245 | 135° | 97km/h | 9051m | 6.9m/s | -36.5°C | 37.9% | 0hPa | 0V | 00:00:00 | 00:00:00 | 00:00:00 | |
| LZ4TU-5 | 2026-09-03 17:37:35 | 44.65087 | 20.56895 | 153° | 93km/h | 8609m | 6.3m/s | -32.8°C | 48.5% | 0hPa | 0V | 00:00:00 | 00:00:00 | 00:00:00 | |
| LZ4TU-5 | 2026-09-03 17:37:30 | 44.65178 | 20.56806 | 145° | 80km/h | 8580m | 5.2m/s | -32.6°C | 52.9% | 0hPa | 0V | 00:00:00 | 00:00:00 | 00:00:00 | |
| LZ4TU-5 | 2026-09-03 17:36:15 | 44.66538 | 20.55507 | 141° | 102km/h | 8173m | 5.4m/s | -29.9°C | 52.3% | 0hPa | 0V | 00:00:00 | 00:00:00 | 00:00:00 | |
| LZ4TU-5 | 2026-09-03 17:36:11 | 44.66621 | 20.55442 | 159° | 82km/h | 8149m | 6.1m/s | -29.7°C | 52.8% | 0hPa | 0V | 00:00:00 | 00:00:00 | 00:00:00 | |
| LZ4TU-5 | 2026-09-03 17:35:37 | 44.67108 | 20.54835 | 131° | 86km/h | 7967m | 5.4m/s | -28.3°C | 27.7% | 0hPa | 0V | 00:00:00 | 00:00:00 | 00:00:00 | |
| LZ4TU-5 | 2026-09-03 17:35:33 | 44.67169 | 20.54757 | 148° | 78km/h | 7950m | 4.0m/s | -28.2°C | 22.9% | 0hPa | 0V | 00:00:00 | 00:00:00 | 00:00:00 | |
| LZ4TU-5 | 2026-09-03 17:34:54 | 44.67735 | 20.54046 | 141° | 78km/h | 7746m | 3.3m/s | -26.4°C | 16.1% | 0hPa | 0V | 00:00:00 | 00:00:00 | 00:00:00 | |
| LZ4TU-5 | 2026-09-03 17:34:17 | 44.68237 | 20.53378 | 132° | 57km/h | 7546m | 6.5m/s | -24.6°C | 17.3% | 0hPa | 0V | 00:00:00 | 00:00:00 | 00:00:00 | |
| LZ4TU-5 | 2026-09-03 17:34:12 | 44.68312 | 20.53289 | 139° | 93km/h | 7521m | 3.5m/s | -24.5°C | 20.9% | 0hPa | 0V | 00:00:00 | 00:00:00 | 00:00:00 | |
| LZ4TU-5 | 2026-09-03 17:33:33 | 44.68794 | 20.52614 | 136° | 75km/h | 7305m | 4.6m/s | -23.3°C | 14.1% | 0hPa | 0V | 00:00:00 | 00:00:00 | 00:00:00 | |
| LZ4TU-5 | 2026-09-03 17:33:28 | 44.68868 | 20.52521 | 137° | 78km/h | 7278m | 4.5m/s | -23.0°C | 13.9% | 0hPa | 0V | 00:00:00 | 00:00:00 | 00:00:00 | |
| LZ4TU-5 | 2026-09-03 17:32:54 | 44.69275 | 20.52032 | 149° | 69km/h | 7104m | 6.0m/s | -22.7°C | 30.4% | 0hPa | 0V | 00:00:00 | 00:00:00 | 00:00:00 | |
| LZ4TU-5 | 2026-09-03 17:32:49 | 44.69342 | 20.51958 | 133° | 57km/h | 7079m | 3.8m/s | -22.5°C | 30.3% | 0hPa | 0V | 00:00:00 | 00:00:00 | 00:00:00 | |
| LZ4TU-5 | 2026-09-03 17:32:05 | 44.69890 | 20.51327 | 149° | 68km/h | 6851m | 5.1m/s | -20.4°C | 24.7% | 0hPa | 0V | 00:00:00 | 00:00:00 | 00:00:00 | |
| LZ4TU-5 | 2026-09-03 17:30:48 | 44.70853 | 20.50318 | 141° | 80km/h | 6443m | 3.8m/s | -16.7°C | 24.5% | 0hPa | 0V | 00:00:00 | 00:00:00 | 00:00:00 | |
| LZ4TU-5 | 2026-09-03 17:30:43 | 44.70904 | 20.50243 | 144° | 47km/h | 6417m | 3.7m/s | -16.4°C | 22.4% | 0hPa | 0V | 00:00:00 | 00:00:00 | 00:00:00 | |
| LZ4TU-5 | 2026-09-03 17:30:38 | 44.70976 | 20.50171 | 138° | 69km/h | 6387m | 4.4m/s | -16.2°C | 21.8% | 0hPa | 0V | 00:00:00 | 00:00:00 | 00:00:00 | |
| LZ4TU-5 | 2026-09-03 17:30:31 | 44.71028 | 20.50087 | 135° | 62km/h | 6351m | 6.2m/s | -15.8°C | 21.6% | 0hPa | 0V | 00:00:00 | 00:00:00 | 00:00:00 | |
| LZ4TU-5 | 2026-09-03 17:30:27 | 44.71088 | 20.50040 | 162° | 57km/h | 6323m | 5.0m/s | -15.6°C | 22.6% | 0hPa | 0V | 00:00:00 | 00:00:00 | 00:00:00 | |
| LZ4TU-5 | 2026-09-03 17:30:23 | 44.71129 | 20.50010 | 135° | 42km/h | 6302m | 5.8m/s | -15.4°C | 22.8% | 0hPa | 0V | 00:00:00 | 00:00:00 | 00:00:00 | |
| LZ4TU-5 | 2026-09-03 17:30:17 | 44.71186 | 20.49925 | 138° | 73km/h | 6265m | 5.5m/s | -15.1°C | 21.6% | 0hPa | 0V | 00:00:00 | 00:00:00 | 00:00:00 |